Observation data for Snyder SSW on 06/25/2019      Previous  Date  Next       Current Mesonet Observations  Soil Data  Daily Summary Page  Observations in Plain Language
KWT1 250500Z 17009KT 24/18 A2995 RMK A01 T02360179  RH  070%=      5-min Rain = 0
KWT1 250501Z 16011KT 24/18 A2995 RMK A01 T02360178  RH  070%=      5-min Rain = 0
KWT1 250502Z 16011KT 24/18 A2994 RMK A01 T02360177  RH  070%=      5-min Rain = 0
KWT1 250503Z 17012KT 24/18 A2994 RMK A01 T02360175  RH  069%=      5-min Rain = 0
KWT1 250504Z 17011KT 24/17 A2994 RMK A01 T02360173  RH  068%=      5-min Rain = 0
KWT1 250505Z 16009KT 24/17 A2994 RMK A01 T02370172  RH  067%=      5-min Rain = 0
KWT1 250506Z 16009KT 24/17 A2994 RMK A01 T02380173  RH  067%=      5-min Rain = 0
KWT1 250507Z 16010KT 24/17 A2994 RMK A01 T02370172  RH  067%=      5-min Rain = 0
KWT1 250508Z 16010KT 24/17 A2994 RMK A01 T02380172  RH  067%=      5-min Rain = 0
KWT1 250509Z 16010KT 24/17 A2994 RMK A01 T02370172  RH  067%=      5-min Rain = 0
KWT1 250510Z 16011KT 24/17 A2994 RMK A01 T02360171  RH  067%=      5-min Rain = 0
KWT1 250511Z 16010KT 24/17 A2994 RMK A01 T02360171  RH  067%=      5-min Rain = 0
KWT1 250512Z 17012KT 24/17 A2994 RMK A01 T02360171  RH  067%=      5-min Rain = 0
KWT1 250513Z 16011KT 24/17 A2994 RMK A01 T02360170  RH  066%=      5-min Rain = 0
KWT1 250514Z 16010KT 24/17 A2994 RMK A01 T02360169  RH  066%=      5-min Rain = 0
KWT1 250515Z 16011KT 24/17 A2994 RMK A01 T02360169  RH  066%=      5-min Rain = 0
KWT1 250516Z 16011KT 24/17 A2994 RMK A01 T02360168  RH  066%=      5-min Rain = 0
KWT1 250517Z 16011KT 24/17 A2994 RMK A01 T02370169  RH  066%=      5-min Rain = 0
KWT1 250518Z 16010KT 24/17 A2993 RMK A01 T02370169  RH  066%=      5-min Rain = 0
KWT1 250519Z 16011KT 24/17 A2993 RMK A01 T02360169  RH  066%=      5-min Rain = 0
KWT1 250520Z 16011KT 24/17 A2993 RMK A01 T02360168  RH  066%=      5-min Rain = 0
KWT1 250521Z 17010KT 24/17 A2993 RMK A01 T02360168  RH  066%=      5-min Rain = 0
KWT1 250522Z 17009KT 24/17 A2993 RMK A01 T02360168  RH  066%=      5-min Rain = 0
KWT1 250523Z 17009KT 24/17 A2993 RMK A01 T02360168  RH  066%=      5-min Rain = 0
KWT1 250524Z 16010KT 24/17 A2993 RMK A01 T02360168  RH  066%=      5-min Rain = 0
KWT1 250525Z 17010KT 24/17 A2993 RMK A01 T02350167  RH  066%=      5-min Rain = 0
KWT1 250526Z 17009KT 24/17 A2993 RMK A01 T02350167  RH  066%=      5-min Rain = 0
KWT1 250527Z 17010KT 24/17 A2993 RMK A01 T02350167  RH  066%=      5-min Rain = 0
KWT1 250528Z 17009KT 24/17 A2993 RMK A01 T02350167  RH  066%=      5-min Rain = 0
KWT1 250529Z 17009KT 24/17 A2993 RMK A01 T02350166  RH  066%=      5-min Rain = 0
KWT1 250530Z 17010KT 23/17 A2993 RMK A01 T02340165  RH  065%=      5-min Rain = 0
KWT1 250531Z 17010KT 23/16 A2992 RMK A01 T02340164  RH  065%=      5-min Rain = 0
KWT1 250532Z 18010KT 24/16 A2992 RMK A01 T02350163  RH  064%=      5-min Rain = 0
KWT1 250533Z 17011KT 24/16 A2993 RMK A01 T02350163  RH  064%=      5-min Rain = 0
KWT1 250534Z 17010KT 24/16 A2992 RMK A01 T02350163  RH  064%=      5-min Rain = 0
KWT1 250535Z 18010KT 24/16 A2992 RMK A01 T02350163  RH  064%=      5-min Rain = 0
KWT1 250536Z 18009KT 24/16 A2992 RMK A01 T02350163  RH  064%=      5-min Rain = 0
KWT1 250537Z 17011KT 23/16 A2992 RMK A01 T02340163  RH  064%=      5-min Rain = 0
KWT1 250538Z 18009KT 23/16 A2992 RMK A01 T02340162  RH  064%=      5-min Rain = 0
KWT1 250539Z 18010KT 23/16 A2992 RMK A01 T02340162  RH  064%=      5-min Rain = 0
KWT1 250540Z 17010KT 23/16 A2992 RMK A01 T02330161  RH  064%=      5-min Rain = 0
KWT1 250541Z 17012KT 23/16 A2992 RMK A01 T02320160  RH  064%=      5-min Rain = 0
KWT1 250542Z 17010KT 23/16 A2992 RMK A01 T02320160  RH  064%=      5-min Rain = 0
KWT1 250543Z 17010KT 23/16 A2992 RMK A01 T02330160  RH  064%=      5-min Rain = 0
KWT1 250544Z 18009KT 23/16 A2992 RMK A01 T02320159  RH  063%=      5-min Rain = 0
KWT1 250545Z 17010KT 23/16 A2992 RMK A01 T02330159  RH  063%=      5-min Rain = 0
KWT1 250546Z 17010KT 23/16 A2992 RMK A01 T02330158  RH  063%=      5-min Rain = 0
KWT1 250547Z 17009KT 23/16 A2992 RMK A01 T02320158  RH  063%=      5-min Rain = 0
KWT1 250548Z 17010KT 23/16 A2992 RMK A01 T02320158  RH  063%=      5-min Rain = 0
KWT1 250549Z 17011KT 23/16 A2992 RMK A01 T02320157  RH  063%=      5-min Rain = 0
KWT1 250550Z 17009KT 23/16 A2992 RMK A01 T02320156  RH  062%=      5-min Rain = 0
KWT1 250551Z 17009KT 23/16 A2992 RMK A01 T02320156  RH  062%=      5-min Rain = 0
KWT1 250552Z 17008KT 23/16 A2992 RMK A01 T02320156  RH  062%=      5-min Rain = 0
KWT1 250553Z 18009KT 23/16 A2992 RMK A01 T02320156  RH  062%=      5-min Rain = 0
KWT1 250554Z 17008KT 23/16 A2992 RMK A01 T02310156  RH  062%=      5-min Rain = 0
KWT1 250555Z 18008KT 23/16 A2992 RMK A01 T02310156  RH  063%=      5-min Rain = 0
KWT1 250556Z 18008KT 23/16 A2992 RMK A01 T02300156  RH  063%=      5-min Rain = 0
KWT1 250557Z 18009KT 23/16 A2991 RMK A01 T02300156  RH  063%=      5-min Rain = 0
KWT1 250558Z 18009KT 23/16 A2992 RMK A01 T02290155  RH  063%=      5-min Rain = 0
KWT1 250559Z 17008KT 23/16 A2992 RMK A01 T02290155  RH  063%=      5-min Rain = 0
KWT1 250600Z 17008KT 23/16 A2991 RMK A01 T02290155  RH  063%=      5-min Rain = 0
KWT1 250601Z 17008KT 23/16 A2991 RMK A01 T02290156  RH  063%=      5-min Rain = 0
KWT1 250602Z 17009KT 23/16 A2991 RMK A01 T02290155  RH  063%=      5-min Rain = 0
KWT1 250603Z 18008KT 23/16 A2991 RMK A01 T02290155  RH  063%=      5-min Rain = 0
KWT1 250604Z 18007KT 23/16 A2991 RMK A01 T02290155  RH  063%=      5-min Rain = 0
KWT1 250605Z 18007KT 23/16 A2991 RMK A01 T02290155  RH  063%=      5-min Rain = 0
KWT1 250606Z 17007KT 23/16 A2991 RMK A01 T02280155  RH  063%=      5-min Rain = 0
KWT1 250607Z 17007KT 23/16 A2991 RMK A01 T02280155  RH  063%=      5-min Rain = 0
KWT1 250608Z 17008KT 23/16 A2992 RMK A01 T02280155  RH  064%=      5-min Rain = 0
KWT1 250609Z 17008KT 23/16 A2992 RMK A01 T02260155  RH  064%=      5-min Rain = 0
KWT1 250610Z 18008KT 23/15 A2992 RMK A01 T02260154  RH  064%=      5-min Rain = 0
KWT1 250611Z 18008KT 23/15 A2992 RMK A01 T02260154  RH  064%=      5-min Rain = 0
KWT1 250612Z 18009KT 23/15 A2992 RMK A01 T02270154  RH  064%=      5-min Rain = 0
KWT1 250613Z 19008KT 23/15 A2992 RMK A01 T02270154  RH  063%=      5-min Rain = 0
KWT1 250614Z 18008KT 23/15 A2992 RMK A01 T02270154  RH  064%=      5-min Rain = 0
KWT1 250615Z 19008KT 23/15 A2992 RMK A01 T02270154  RH  064%=      5-min Rain = 0
KWT1 250616Z 18008KT 23/16 A2992 RMK A01 T02260155  RH  064%=      5-min Rain = 0
KWT1 250617Z 19008KT 23/16 A2992 RMK A01 T02250155  RH  064%=      5-min Rain = 0
KWT1 250618Z 18006KT 22/16 A2992 RMK A01 T02240155  RH  065%=      5-min Rain = 0
KWT1 250619Z 18007KT 22/16 A2992 RMK A01 T02230155  RH  065%=      5-min Rain = 0
KWT1 250620Z 19007KT 22/16 A2992 RMK A01 T02230155  RH  066%=      5-min Rain = 0
KWT1 250621Z 18006KT 22/16 A2992 RMK A01 T02220155  RH  066%=      5-min Rain = 0
KWT1 250622Z 19007KT 22/16 A2992 RMK A01 T02210155  RH  066%=      5-min Rain = 0
KWT1 250623Z 18008KT 22/16 A2992 RMK A01 T02210155  RH  066%=      5-min Rain = 0
KWT1 250624Z 18008KT 22/16 A2992 RMK A01 T02210156  RH  066%=      5-min Rain = 0
KWT1 250625Z 18008KT 22/16 A2992 RMK A01 T02200155  RH  067%=      5-min Rain = 0
KWT1 250626Z 19007KT 22/16 A2992 RMK A01 T02190155  RH  067%=      5-min Rain = 0
KWT1 250627Z 18008KT 22/16 A2992 RMK A01 T02180155  RH  067%=      5-min Rain = 0
KWT1 250628Z 19008KT 22/16 A2992 RMK A01 T02190155  RH  067%=      5-min Rain = 0
KWT1 250629Z 19008KT 22/16 A2992 RMK A01 T02190156  RH  067%=      5-min Rain = 0
KWT1 250630Z 20008KT 22/16 A2992 RMK A01 T02170155  RH  068%=      5-min Rain = 0
KWT1 250631Z 19008KT 22/16 A2992 RMK A01 T02170156  RH  068%=      5-min Rain = 0
KWT1 250632Z 19007KT 22/16 A2992 RMK A01 T02160156  RH  069%=      5-min Rain = 0
KWT1 250633Z 20008KT 22/16 A2992 RMK A01 T02160156  RH  069%=      5-min Rain = 0
KWT1 250634Z 20007KT 21/16 A2992 RMK A01 T02140156  RH  069%=      5-min Rain = 0
KWT1 250635Z 20007KT 21/16 A2992 RMK A01 T02130156  RH  070%=      5-min Rain = 0
KWT1 250636Z 20007KT 21/16 A2992 RMK A01 T02130157  RH  070%=      5-min Rain = 0
KWT1 250637Z 20006KT 21/16 A2992 RMK A01 T02120156  RH  071%=      5-min Rain = 0
KWT1 250638Z 20007KT 21/16 A2992 RMK A01 T02110156  RH  071%=      5-min Rain = 0
KWT1 250639Z 21008KT 21/16 A2992 RMK A01 T02100157  RH  071%=      5-min Rain = 0
KWT1 250640Z 21008KT 21/16 A2993 RMK A01 T02090156  RH  072%=      5-min Rain = 0
KWT1 250641Z 20007KT 21/16 A2993 RMK A01 T02090157  RH  072%=      5-min Rain = 0
KWT1 250642Z 20007KT 21/16 A2993 RMK A01 T02090157  RH  072%=      5-min Rain = 0
KWT1 250643Z 20007KT 21/16 A2993 RMK A01 T02090157  RH  072%=      5-min Rain = 0
KWT1 250644Z 20007KT 21/16 A2993 RMK A01 T02090157  RH  072%=      5-min Rain = 0
KWT1 250645Z 19005KT 21/16 A2993 RMK A01 T02090158  RH  072%=      5-min Rain = 0
KWT1 250646Z 19007KT 21/16 A2993 RMK A01 T02090157  RH  072%=      5-min Rain = 0
KWT1 250647Z 19007KT 21/16 A2993 RMK A01 T02090158  RH  073%=      5-min Rain = 0
KWT1 250648Z 19007KT 21/16 A2993 RMK A01 T02080158  RH  073%=      5-min Rain = 0
KWT1 250649Z 20007KT 21/16 A2993 RMK A01 T02070158  RH  073%=      5-min Rain = 0
KWT1 250650Z 20007KT 21/16 A2993 RMK A01 T02070158  RH  074%=      5-min Rain = 0
KWT1 250651Z 20008KT 21/16 A2993 RMK A01 T02060158  RH  074%=      5-min Rain = 0
KWT1 250652Z 20007KT 21/16 A2993 RMK A01 T02050158  RH  074%=      5-min Rain = 0
KWT1 250653Z 19006KT 20/16 A2992 RMK A01 T02040158  RH  075%=      5-min Rain = 0
KWT1 250654Z 19007KT 20/16 A2992 RMK A01 T02040158  RH  075%=      5-min Rain = 0
KWT1 250655Z 19009KT 20/16 A2992 RMK A01 T02040158  RH  075%=      5-min Rain = 0
KWT1 250656Z 19010KT 20/16 A2992 RMK A01 T02040158  RH  075%=      5-min Rain = 0
KWT1 250657Z 19008KT 21/16 A2992 RMK A01 T02060158  RH  074%=      5-min Rain = 0
KWT1 250658Z 19007KT 21/16 A2993 RMK A01 T02060158  RH  074%=      5-min Rain = 0
KWT1 250659Z 19008KT 21/16 A2992 RMK A01 T02060158  RH  074%=      5-min Rain = 0
KWT1 250700Z 20009KT 21/16 A2993 RMK A01 T02060159  RH  074%=      5-min Rain = 0
KWT1 250701Z 20008KT 21/16 A2992 RMK A01 T02060158  RH  074%=      5-min Rain = 0
KWT1 250702Z 20008KT 21/16 A2992 RMK A01 T02060159  RH  074%=      5-min Rain = 0
KWT1 250703Z 20008KT 21/16 A2992 RMK A01 T02050158  RH  074%=      5-min Rain = 0
KWT1 250704Z 20008KT 21/16 A2992 RMK A01 T02060159  RH  074%=      5-min Rain = 0
KWT1 250705Z 20008KT 21/16 A2992 RMK A01 T02050159  RH  075%=      5-min Rain = 0
KWT1 250706Z 20009KT 21/16 A2992 RMK A01 T02050159  RH  075%=      5-min Rain = 0
KWT1 250707Z 20008KT 21/16 A2992 RMK A01 T02050159  RH  075%=      5-min Rain = 0
KWT1 250708Z 19008KT 21/16 A2992 RMK A01 T02050158  RH  074%=      5-min Rain = 0
KWT1 250709Z 19007KT 21/16 A2992 RMK A01 T02050158  RH  074%=      5-min Rain = 0
KWT1 250710Z 19007KT 21/16 A2992 RMK A01 T02050159  RH  075%=      5-min Rain = 0
KWT1 250711Z 19007KT 21/16 A2992 RMK A01 T02050159  RH  075%=      5-min Rain = 0
KWT1 250712Z 20007KT 20/16 A2992 RMK A01 T02040159  RH  075%=      5-min Rain = 0
KWT1 250713Z 20008KT 20/16 A2992 RMK A01 T02030159  RH  075%=      5-min Rain = 0
KWT1 250714Z 20007KT 20/16 A2992 RMK A01 T02030159  RH  076%=      5-min Rain = 0
KWT1 250715Z 19008KT 20/16 A2992 RMK A01 T02020158  RH  076%=      5-min Rain = 0
KWT1 250716Z 20007KT 20/16 A2992 RMK A01 T02020158  RH  076%=      5-min Rain = 0
KWT1 250717Z 20006KT 20/16 A2992 RMK A01 T02020158  RH  076%=      5-min Rain = 0
KWT1 250718Z 20006KT 20/16 A2992 RMK A01 T02020159  RH  076%=      5-min Rain = 0
KWT1 250719Z 20006KT 20/16 A2992 RMK A01 T02010158  RH  076%=      5-min Rain = 0
KWT1 250720Z 20006KT 20/16 A2992 RMK A01 T02010158  RH  076%=      5-min Rain = 0
KWT1 250721Z 20007KT 20/16 A2992 RMK A01 T02000158  RH  077%=      5-min Rain = 0
KWT1 250722Z 19007KT 20/16 A2992 RMK A01 T02000158  RH  077%=      5-min Rain = 0
KWT1 250723Z 20006KT 20/16 A2992 RMK A01 T02000158  RH  077%=      5-min Rain = 0
KWT1 250724Z 19007KT 20/16 A2992 RMK A01 T02000158  RH  077%=      5-min Rain = 0
KWT1 250725Z 19007KT 20/16 A2992 RMK A01 T02000158  RH  077%=      5-min Rain = 0
KWT1 250726Z 19007KT 20/16 A2992 RMK A01 T02000158  RH  077%=      5-min Rain = 0
KWT1 250727Z 19007KT 20/16 A2992 RMK A01 T02000159  RH  077%=      5-min Rain = 0
KWT1 250728Z 20008KT 20/16 A2993 RMK A01 T01990159  RH  077%=      5-min Rain = 0
KWT1 250729Z 20009KT 20/16 A2993 RMK A01 T01990159  RH  078%=      5-min Rain = 0
KWT1 250730Z 19008KT 20/16 A2993 RMK A01 T01990159  RH  078%=      5-min Rain = 0
KWT1 250731Z 19008KT 20/16 A2993 RMK A01 T01990159  RH  078%=      5-min Rain = 0
KWT1 250732Z 19007KT 20/16 A2993 RMK A01 T01980159  RH  078%=      5-min Rain = 0
KWT1 250733Z 19008KT 20/16 A2993 RMK A01 T01980159  RH  078%=      5-min Rain = 0
KWT1 250734Z 19008KT 20/16 A2993 RMK A01 T01980160  RH  078%=      5-min Rain = 0
KWT1 250735Z 20008KT 20/16 A2993 RMK A01 T01970159  RH  078%=      5-min Rain = 0
KWT1 250736Z 20008KT 20/16 A2993 RMK A01 T01980160  RH  079%=      5-min Rain = 0
KWT1 250737Z 20008KT 20/16 A2993 RMK A01 T01980159  RH  079%=      5-min Rain = 0
KWT1 250738Z 20008KT 20/16 A2993 RMK A01 T01980159  RH  079%=      5-min Rain = 0
KWT1 250739Z 20008KT 20/16 A2993 RMK A01 T01980159  RH  079%=      5-min Rain = 0
KWT1 250740Z 20008KT 20/16 A2993 RMK A01 T01980160  RH  079%=      5-min Rain = 0
KWT1 250741Z 20008KT 20/16 A2993 RMK A01 T01970160  RH  079%=      5-min Rain = 0
KWT1 250742Z 20009KT 20/16 A2993 RMK A01 T01980160  RH  079%=      5-min Rain = 0
KWT1 250743Z 20009KT 20/16 A2993 RMK A01 T01980160  RH  079%=      5-min Rain = 0
KWT1 250744Z 20010KT 20/16 A2993 RMK A01 T01980160  RH  079%=      5-min Rain = 0
KWT1 250745Z 20009KT 20/16 A2993 RMK A01 T01980160  RH  078%=      5-min Rain = 0
KWT1 250746Z 21010KT 20/16 A2993 RMK A01 T01990160  RH  078%=      5-min Rain = 0
KWT1 250747Z 21010KT 20/16 A2993 RMK A01 T01980160  RH  079%=      5-min Rain = 0
KWT1 250748Z 21009KT 20/16 A2993 RMK A01 T01980160  RH  079%=      5-min Rain = 0
KWT1 250749Z 21008KT 20/16 A2993 RMK A01 T01980160  RH  079%=      5-min Rain = 0
KWT1 250750Z 21009KT 20/16 A2993 RMK A01 T01970160  RH  079%=      5-min Rain = 0
KWT1 250751Z 21009KT 20/16 A2993 RMK A01 T01970160  RH  079%=      5-min Rain = 0
KWT1 250752Z 22009KT 20/16 A2993 RMK A01 T01960160  RH  080%=      5-min Rain = 0
KWT1 250753Z 22010KT 20/16 A2993 RMK A01 T01950160  RH  080%=      5-min Rain = 0
KWT1 250754Z 22009KT 20/16 A2993 RMK A01 T01950160  RH  080%=      5-min Rain = 0
KWT1 250755Z 21009KT 20/16 A2993 RMK A01 T01950160  RH  080%=      5-min Rain = 0
KWT1 250756Z 21010KT 20/16 A2993 RMK A01 T01950160  RH  080%=      5-min Rain = 0
KWT1 250757Z 21009KT 20/16 A2993 RMK A01 T01950160  RH  080%=      5-min Rain = 0
KWT1 250758Z 21009KT 19/16 A2993 RMK A01 T01940160  RH  081%=      5-min Rain = 0
KWT1 250759Z 21009KT 19/16 A2993 RMK A01 T01940161  RH  081%=      5-min Rain = 0
KWT1 250800Z 21010KT 19/16 A2993 RMK A01 T01940160  RH  081%=      5-min Rain = 0
KWT1 250801Z 21008KT 19/16 A2993 RMK A01 T01940161  RH  081%=      5-min Rain = 0
KWT1 250802Z 22007KT 19/16 A2993 RMK A01 T01940161  RH  081%=      5-min Rain = 0
KWT1 250803Z 22008KT 19/16 A2994 RMK A01 T01930161  RH  082%=      5-min Rain = 0
KWT1 250804Z 22009KT 19/16 A2994 RMK A01 T01930161  RH  082%=      5-min Rain = 0
KWT1 250805Z 22008KT 19/16 A2994 RMK A01 T01930161  RH  082%=      5-min Rain = 0
KWT1 250806Z 22007KT 19/16 A2994 RMK A01 T01920160  RH  082%=      5-min Rain = 0
KWT1 250807Z 22007KT 19/16 A2994 RMK A01 T01910161  RH  082%=      5-min Rain = 0
KWT1 250808Z 22007KT 19/16 A2994 RMK A01 T01900160  RH  083%=      5-min Rain = 0
KWT1 250809Z 22008KT 19/16 A2994 RMK A01 T01900160  RH  083%=      5-min Rain = 0
KWT1 250810Z 23007KT 19/16 A2994 RMK A01 T01900160  RH  083%=      5-min Rain = 0
KWT1 250811Z 23006KT 19/16 A2994 RMK A01 T01890160  RH  083%=      5-min Rain = 0
KWT1 250812Z 23006KT 19/16 A2994 RMK A01 T01890160  RH  083%=      5-min Rain = 0
KWT1 250813Z 22006KT 19/16 A2994 RMK A01 T01890160  RH  083%=      5-min Rain = 0
KWT1 250814Z 22006KT 19/16 A2994 RMK A01 T01880160  RH  083%=      5-min Rain = 0
KWT1 250815Z 22004KT 19/16 A2994 RMK A01 T01880160  RH  084%=      5-min Rain = 0
KWT1 250816Z 21005KT 19/16 A2994 RMK A01 T01880160  RH  084%=      5-min Rain = 0
KWT1 250817Z 21005KT 19/16 A2994 RMK A01 T01880160  RH  084%=      5-min Rain = 0
KWT1 250818Z 21005KT 19/16 A2994 RMK A01 T01870160  RH  084%=      5-min Rain = 0
KWT1 250819Z 22005KT 19/16 A2995 RMK A01 T01870160  RH  084%=      5-min Rain = 0
KWT1 250820Z 22006KT 19/16 A2995 RMK A01 T01870160  RH  085%=      5-min Rain = 0
KWT1 250821Z 21005KT 19/16 A2994 RMK A01 T01870161  RH  085%=      5-min Rain = 0
KWT1 250822Z 22005KT 19/16 A2995 RMK A01 T01860160  RH  085%=      5-min Rain = 0
KWT1 250823Z 22005KT 19/16 A2995 RMK A01 T01870160  RH  085%=      5-min Rain = 0
KWT1 250824Z 20005KT 19/16 A2995 RMK A01 T01870160  RH  085%=      5-min Rain = 0
KWT1 250825Z 21005KT 19/16 A2995 RMK A01 T01860160  RH  085%=      5-min Rain = 0
KWT1 250826Z 20005KT 19/16 A2995 RMK A01 T01870161  RH  085%=      5-min Rain = 0
KWT1 250827Z 20004KT 19/16 A2995 RMK A01 T01860160  RH  085%=      5-min Rain = 0
KWT1 250828Z 20006KT 19/16 A2995 RMK A01 T01860161  RH  085%=      5-min Rain = 0
KWT1 250829Z 20005KT 19/16 A2995 RMK A01 T01850161  RH  086%=      5-min Rain = 0
KWT1 250830Z 21005KT 19/16 A2995 RMK A01 T01850161  RH  086%=      5-min Rain = 0
KWT1 250831Z 21005KT 19/16 A2995 RMK A01 T01850161  RH  086%=      5-min Rain = 0
KWT1 250832Z 22004KT 19/16 A2995 RMK A01 T01850161  RH  086%=      5-min Rain = 0
KWT1 250833Z 22005KT 19/16 A2995 RMK A01 T01850161  RH  086%=      5-min Rain = 0
KWT1 250834Z 21005KT 19/16 A2995 RMK A01 T01850161  RH  086%=      5-min Rain = 0
KWT1 250835Z 21005KT 19/16 A2995 RMK A01 T01850161  RH  086%=      5-min Rain = 0
KWT1 250836Z 22005KT 19/16 A2995 RMK A01 T01850161  RH  086%=      5-min Rain = 0
KWT1 250837Z 21005KT 19/16 A2995 RMK A01 T01850161  RH  086%=      5-min Rain = 0
KWT1 250838Z 21005KT 19/16 A2995 RMK A01 T01850161  RH  086%=      5-min Rain = 0
KWT1 250839Z 21004KT 18/16 A2994 RMK A01 T01840161  RH  086%=      5-min Rain = 0
KWT1 250840Z 21004KT 18/16 A2994 RMK A01 T01840161  RH  087%=      5-min Rain = 0
KWT1 250841Z 21005KT 18/16 A2995 RMK A01 T01840161  RH  087%=      5-min Rain = 0
KWT1 250842Z 21004KT 18/16 A2995 RMK A01 T01840162  RH  087%=      5-min Rain = 0
KWT1 250843Z 21004KT 18/16 A2995 RMK A01 T01840161  RH  087%=      5-min Rain = 0
KWT1 250844Z 20005KT 18/16 A2995 RMK A01 T01830161  RH  087%=      5-min Rain = 0
KWT1 250845Z 20004KT 18/16 A2995 RMK A01 T01830161  RH  087%=      5-min Rain = 0
KWT1 250846Z 20004KT 18/16 A2995 RMK A01 T01830162  RH  087%=      5-min Rain = 0
KWT1 250847Z 20004KT 18/16 A2995 RMK A01 T01820161  RH  088%=      5-min Rain = 0
KWT1 250848Z 20004KT 18/16 A2995 RMK A01 T01820162  RH  088%=      5-min Rain = 0
KWT1 250849Z 19004KT 18/16 A2995 RMK A01 T01820162  RH  088%=      5-min Rain = 0
KWT1 250850Z 19004KT 18/16 A2995 RMK A01 T01820162  RH  088%=      5-min Rain = 0
KWT1 250851Z 20004KT 18/16 A2995 RMK A01 T01820162  RH  088%=      5-min Rain = 0
KWT1 250852Z 20004KT 18/16 A2995 RMK A01 T01820162  RH  088%=      5-min Rain = 0
KWT1 250853Z 20004KT 18/16 A2995 RMK A01 T01820162  RH  088%=      5-min Rain = 0
KWT1 250854Z 20004KT 18/16 A2995 RMK A01 T01810161  RH  088%=      5-min Rain = 0
KWT1 250855Z 19004KT 18/16 A2995 RMK A01 T01810161  RH  088%=      5-min Rain = 0
KWT1 250856Z 19004KT 18/16 A2995 RMK A01 T01800161  RH  089%=      5-min Rain = 0
KWT1 250857Z 19005KT 18/16 A2995 RMK A01 T01800162  RH  089%=      5-min Rain = 0
KWT1 250858Z 19004KT 18/16 A2995 RMK A01 T01800161  RH  089%=      5-min Rain = 0
KWT1 250859Z 20005KT 18/16 A2995 RMK A01 T01800161  RH  089%=      5-min Rain = 0
KWT1 250900Z 20004KT 18/16 A2995 RMK A01 T01790161  RH  089%=      5-min Rain = 0
KWT1 250901Z 21004KT 18/16 A2995 RMK A01 T01790161  RH  089%=      5-min Rain = 0
KWT1 250902Z 21004KT 18/16 A2995 RMK A01 T01780161  RH  089%=      5-min Rain = 0
KWT1 250903Z 22003KT 18/16 A2995 RMK A01 T01780161  RH  090%=      5-min Rain = 0
KWT1 250904Z 21003KT 18/16 A2995 RMK A01 T01780161  RH  090%=      5-min Rain = 0
KWT1 250905Z 22003KT 18/16 A2995 RMK A01 T01780161  RH  090%=      5-min Rain = 0
KWT1 250906Z 21003KT 18/16 A2995 RMK A01 T01780161  RH  090%=      5-min Rain = 0
KWT1 250907Z 21003KT 18/16 A2995 RMK A01 T01780161  RH  090%=      5-min Rain = 0
KWT1 250908Z 21003KT 18/16 A2995 RMK A01 T01780161  RH  090%=      5-min Rain = 0
KWT1 250909Z 21003KT 18/16 A2995 RMK A01 T01780161  RH  090%=      5-min Rain = 0
KWT1 250910Z 21003KT 18/16 A2995 RMK A01 T01770161  RH  090%=      5-min Rain = 0
KWT1 250911Z 21004KT 18/16 A2995 RMK A01 T01780161  RH  090%=      5-min Rain = 0
KWT1 250912Z 22004KT 18/16 A2995 RMK A01 T01770160  RH  090%=      5-min Rain = 0
KWT1 250913Z 22004KT 18/16 A2995 RMK A01 T01760160  RH  090%=      5-min Rain = 0
KWT1 250914Z 22005KT 18/16 A2995 RMK A01 T01760160  RH  090%=      5-min Rain = 0
KWT1 250915Z 21005KT 18/16 A2995 RMK A01 T01760160  RH  090%=      5-min Rain = 0
KWT1 250916Z 21005KT 18/16 A2995 RMK A01 T01750160  RH  090%=      5-min Rain = 0
KWT1 250917Z 21005KT 18/16 A2995 RMK A01 T01750160  RH  091%=      5-min Rain = 0
KWT1 250918Z 21005KT 18/16 A2995 RMK A01 T01750159  RH  091%=      5-min Rain = 0
KWT1 250919Z 21005KT 17/16 A2995 RMK A01 T01740159  RH  091%=      5-min Rain = 0
KWT1 250920Z 21004KT 17/16 A2995 RMK A01 T01740159  RH  091%=      5-min Rain = 0
KWT1 250921Z 21004KT 17/16 A2995 RMK A01 T01740160  RH  091%=      5-min Rain = 0
KWT1 250922Z 22004KT 17/16 A2995 RMK A01 T01740160  RH  091%=      5-min Rain = 0
KWT1 250923Z 21004KT 17/16 A2995 RMK A01 T01740159  RH  091%=      5-min Rain = 0
KWT1 250924Z 21004KT 17/16 A2995 RMK A01 T01730159  RH  092%=      5-min Rain = 0
KWT1 250925Z 21004KT 17/16 A2995 RMK A01 T01730160  RH  092%=      5-min Rain = 0
KWT1 250926Z 20004KT 17/16 A2995 RMK A01 T01730159  RH  091%=      5-min Rain = 0
KWT1 250927Z 20004KT 17/16 A2995 RMK A01 T01730159  RH  091%=      5-min Rain = 0
KWT1 250928Z 21003KT 17/16 A2995 RMK A01 T01730159  RH  091%=      5-min Rain = 0
KWT1 250929Z 21003KT 17/16 A2995 RMK A01 T01730159  RH  091%=      5-min Rain = 0
KWT1 250930Z 21004KT 17/16 A2995 RMK A01 T01730160  RH  092%=      5-min Rain = 0
KWT1 250931Z 21004KT 17/16 A2995 RMK A01 T01730160  RH  092%=      5-min Rain = 0
KWT1 250932Z 21003KT 17/16 A2995 RMK A01 T01730159  RH  092%=      5-min Rain = 0
KWT1 250933Z 21003KT 17/16 A2995 RMK A01 T01730159  RH  092%=      5-min Rain = 0
KWT1 250934Z 21003KT 17/16 A2995 RMK A01 T01730159  RH  092%=      5-min Rain = 0
KWT1 250935Z 20004KT 17/16 A2995 RMK A01 T01730159  RH  092%=      5-min Rain = 0
KWT1 250936Z 21004KT 17/16 A2995 RMK A01 T01730159  RH  092%=      5-min Rain = 0
KWT1 250937Z 21003KT 17/16 A2995 RMK A01 T01720159  RH  092%=      5-min Rain = 0
KWT1 250938Z 22004KT 17/16 A2995 RMK A01 T01710158  RH  092%=      5-min Rain = 0
KWT1 250939Z 22004KT 17/16 A2995 RMK A01 T01720159  RH  092%=      5-min Rain = 0
KWT1 250940Z 23004KT 17/16 A2995 RMK A01 T01710159  RH  092%=      5-min Rain = 0
KWT1 250941Z 23004KT 17/16 A2995 RMK A01 T01710159  RH  092%=      5-min Rain = 0
KWT1 250942Z 23004KT 17/16 A2995 RMK A01 T01710159  RH  093%=      5-min Rain = 0
KWT1 250943Z 23004KT 17/16 A2995 RMK A01 T01710159  RH  093%=      5-min Rain = 0
KWT1 250944Z 23004KT 17/16 A2995 RMK A01 T01710159  RH  093%=      5-min Rain = 0
KWT1 250945Z 23004KT 17/16 A2995 RMK A01 T01720160  RH  093%=      5-min Rain = 0
KWT1 250946Z 23004KT 17/16 A2995 RMK A01 T01720159  RH  092%=      5-min Rain = 0
KWT1 250947Z 23004KT 17/16 A2995 RMK A01 T01710157  RH  092%=      5-min Rain = 0
KWT1 250948Z 22004KT 17/16 A2995 RMK A01 T01700157  RH  092%=      5-min Rain = 0
KWT1 250949Z 22004KT 17/16 A2995 RMK A01 T01700157  RH  092%=      5-min Rain = 0
KWT1 250950Z 22004KT 17/16 A2995 RMK A01 T01700158  RH  093%=      5-min Rain = 0
KWT1 250951Z 23004KT 17/16 A2995 RMK A01 T01700158  RH  093%=      5-min Rain = 0
KWT1 250952Z 23005KT 17/16 A2995 RMK A01 T01700158  RH  093%=      5-min Rain = 0
KWT1 250953Z 23005KT 17/16 A2995 RMK A01 T01700159  RH  093%=      5-min Rain = 0
KWT1 250954Z 23006KT 17/16 A2995 RMK A01 T01700159  RH  093%=      5-min Rain = 0
KWT1 250955Z 24006KT 17/16 A2995 RMK A01 T01700158  RH  093%=      5-min Rain = 0
KWT1 250956Z 24006KT 17/16 A2995 RMK A01 T01700159  RH  093%=      5-min Rain = 0
KWT1 250957Z 24006KT 17/16 A2995 RMK A01 T01700159  RH  093%=      5-min Rain = 0
KWT1 250958Z 24006KT 17/16 A2995 RMK A01 T01710159  RH  093%=      5-min Rain = 0
KWT1 250959Z 24006KT 17/16 A2995 RMK A01 T01710159  RH  093%=      5-min Rain = 0
KWT1 251000Z 24006KT 17/16 A2995 RMK A01 T01700159  RH  093%=      5-min Rain = 0
KWT1 251001Z 24006KT 17/16 A2995 RMK A01 T01710159  RH  093%=      5-min Rain = 0
KWT1 251002Z 24006KT 17/16 A2995 RMK A01 T01710160  RH  093%=      5-min Rain = 0
KWT1 251003Z 24007KT 17/16 A2995 RMK A01 T01720160  RH  093%=      5-min Rain = 0
KWT1 251004Z 24007KT 17/16 A2995 RMK A01 T01720160  RH  093%=      5-min Rain = 0
KWT1 251005Z 24007KT 17/16 A2995 RMK A01 T01720160  RH  092%=      5-min Rain = 0
KWT1 251006Z 24007KT 17/16 A2995 RMK A01 T01730160  RH  092%=      5-min Rain = 0
KWT1 251007Z 24007KT 17/16 A2995 RMK A01 T01720160  RH  092%=      5-min Rain = 0
KWT1 251008Z 24006KT 17/16 A2995 RMK A01 T01730159  RH  092%=      5-min Rain = 0
KWT1 251009Z 24007KT 17/16 A2995 RMK A01 T01730158  RH  091%=      5-min Rain = 0
KWT1 251010Z 24006KT 17/16 A2995 RMK A01 T01730157  RH  091%=      5-min Rain = 0
KWT1 251011Z 24006KT 17/16 A2995 RMK A01 T01730156  RH  090%=      5-min Rain = 0
KWT1 251012Z 24005KT 17/16 A2995 RMK A01 T01730156  RH  089%=      5-min Rain = 0
KWT1 251013Z 24006KT 17/16 A2995 RMK A01 T01740155  RH  089%=      5-min Rain = 0
KWT1 251014Z 24006KT 17/16 A2995 RMK A01 T01740155  RH  089%=      5-min Rain = 0
KWT1 251015Z 24005KT 18/16 A2995 RMK A01 T01750155  RH  088%=      5-min Rain = 0
KWT1 251016Z 24006KT 18/16 A2995 RMK A01 T01750155  RH  088%=      5-min Rain = 0
KWT1 251017Z 24006KT 18/15 A2995 RMK A01 T01750154  RH  088%=      5-min Rain = 0
KWT1 251018Z 23006KT 18/16 A2995 RMK A01 T01750155  RH  087%=      5-min Rain = 0
KWT1 251019Z 23006KT 18/15 A2995 RMK A01 T01760154  RH  087%=      5-min Rain = 0
KWT1 251020Z 23006KT 18/15 A2995 RMK A01 T01760154  RH  087%=      5-min Rain = 0
KWT1 251021Z 23007KT 18/15 A2995 RMK A01 T01770154  RH  087%=      5-min Rain = 0
KWT1 251022Z 23006KT 18/15 A2995 RMK A01 T01770154  RH  086%=      5-min Rain = 0
KWT1 251023Z 23007KT 18/15 A2995 RMK A01 T01770154  RH  086%=      5-min Rain = 0
KWT1 251024Z 23007KT 18/15 A2995 RMK A01 T01770154  RH  086%=      5-min Rain = 0
KWT1 251025Z 23008KT 18/15 A2995 RMK A01 T01770154  RH  086%=      5-min Rain = 0
KWT1 251026Z 23008KT 18/15 A2995 RMK A01 T01770154  RH  086%=      5-min Rain = 0
KWT1 251027Z 23008KT 18/15 A2995 RMK A01 T01770154  RH  086%=      5-min Rain = 0
KWT1 251028Z 23008KT 18/15 A2995 RMK A01 T01770154  RH  086%=      5-min Rain = 0
KWT1 251029Z 24007KT 18/15 A2995 RMK A01 T01770154  RH  086%=      5-min Rain = 0
KWT1 251030Z 24007KT 18/15 A2995 RMK A01 T01770154  RH  086%=      5-min Rain = 0
KWT1 251031Z 24007KT 18/15 A2995 RMK A01 T01770154  RH  086%=      5-min Rain = 0
KWT1 251032Z 24007KT 18/15 A2995 RMK A01 T01760154  RH  087%=      5-min Rain = 0
KWT1 251033Z 24007KT 18/15 A2995 RMK A01 T01760154  RH  087%=      5-min Rain = 0
KWT1 251034Z 24007KT 18/15 A2996 RMK A01 T01760154  RH  087%=      5-min Rain = 0
KWT1 251035Z 24007KT 18/15 A2996 RMK A01 T01760154  RH  087%=      5-min Rain = 0
KWT1 251036Z 24007KT 18/15 A2996 RMK A01 T01760154  RH  087%=      5-min Rain = 0
KWT1 251037Z 24006KT 18/15 A2996 RMK A01 T01750153  RH  087%=      5-min Rain = 0
KWT1 251038Z 24006KT 18/15 A2996 RMK A01 T01760154  RH  087%=      5-min Rain = 0
KWT1 251039Z 24007KT 18/15 A2996 RMK A01 T01750154  RH  087%=      5-min Rain = 0
KWT1 251040Z 24006KT 18/15 A2996 RMK A01 T01750154  RH  087%=      5-min Rain = 0
KWT1 251041Z 24006KT 18/15 A2996 RMK A01 T01750154  RH  087%=      5-min Rain = 0
KWT1 251042Z 24006KT 18/15 A2996 RMK A01 T01750154  RH  087%=      5-min Rain = 0
KWT1 251043Z 24006KT 18/15 A2996 RMK A01 T01750154  RH  088%=      5-min Rain = 0
KWT1 251044Z 24006KT 18/15 A2996 RMK A01 T01750154  RH  088%=      5-min Rain = 0
KWT1 251045Z 24006KT 18/15 A2996 RMK A01 T01750154  RH  088%=      5-min Rain = 0
KWT1 251046Z 24006KT 17/15 A2996 RMK A01 T01740154  RH  088%=      5-min Rain = 0
KWT1 251047Z 24006KT 17/15 A2996 RMK A01 T01740153  RH  088%=      5-min Rain = 0
KWT1 251048Z 24006KT 17/15 A2996 RMK A01 T01730153  RH  088%=      5-min Rain = 0
KWT1 251049Z 24006KT 17/15 A2996 RMK A01 T01730153  RH  088%=      5-min Rain = 0
KWT1 251050Z 24006KT 17/15 A2996 RMK A01 T01730153  RH  088%=      5-min Rain = 0
KWT1 251051Z 24006KT 17/15 A2996 RMK A01 T01730153  RH  088%=      5-min Rain = 0
KWT1 251052Z 24007KT 17/15 A2996 RMK A01 T01730153  RH  088%=      5-min Rain = 0
KWT1 251053Z 24007KT 17/15 A2996 RMK A01 T01730153  RH  088%=      5-min Rain = 0
KWT1 251054Z 23006KT 17/15 A2996 RMK A01 T01730153  RH  088%=      5-min Rain = 0
KWT1 251055Z 24006KT 17/15 A2996 RMK A01 T01730153  RH  088%=      5-min Rain = 0
KWT1 251056Z 24006KT 17/15 A2996 RMK A01 T01730153  RH  088%=      5-min Rain = 0
KWT1 251057Z 24006KT 17/15 A2996 RMK A01 T01720153  RH  088%=      5-min Rain = 0
KWT1 251058Z 24006KT 17/15 A2996 RMK A01 T01720153  RH  089%=      5-min Rain = 0
KWT1 251059Z 24006KT 17/15 A2996 RMK A01 T01720153  RH  089%=      5-min Rain = 0
KWT1 251100Z 24006KT 17/15 A2997 RMK A01 T01720153  RH  089%=      5-min Rain = 0
KWT1 251101Z 24006KT 17/15 A2997 RMK A01 T01720153  RH  089%=      5-min Rain = 0
KWT1 251102Z 24006KT 17/15 A2997 RMK A01 T01720153  RH  089%=      5-min Rain = 0
KWT1 251103Z 24006KT 17/15 A2997 RMK A01 T01710152  RH  089%=      5-min Rain = 0
KWT1 251104Z 24006KT 17/15 A2997 RMK A01 T01720153  RH  089%=      5-min Rain = 0
KWT1 251105Z 24006KT 17/15 A2997 RMK A01 T01720153  RH  088%=      5-min Rain = 0
KWT1 251106Z 24006KT 17/15 A2997 RMK A01 T01720153  RH  088%=      5-min Rain = 0
KWT1 251107Z 24006KT 17/15 A2997 RMK A01 T01730153  RH  088%=      5-min Rain = 0
KWT1 251108Z 25007KT 17/15 A2997 RMK A01 T01720153  RH  088%=      5-min Rain = 0
KWT1 251109Z 24007KT 17/15 A2997 RMK A01 T01720153  RH  088%=      5-min Rain = 0
KWT1 251110Z 25007KT 17/15 A2997 RMK A01 T01720152  RH  088%=      5-min Rain = 0
KWT1 251111Z 25006KT 17/15 A2997 RMK A01 T01730153  RH  088%=      5-min Rain = 0
KWT1 251112Z 25007KT 17/15 A2997 RMK A01 T01720152  RH  088%=      5-min Rain = 0
KWT1 251113Z 25007KT 17/15 A2997 RMK A01 T01720152  RH  088%=      5-min Rain = 0
KWT1 251114Z 25007KT 17/15 A2997 RMK A01 T01720152  RH  088%=      5-min Rain = 0
KWT1 251115Z 25007KT 17/15 A2997 RMK A01 T01720152  RH  088%=      5-min Rain = 0
KWT1 251116Z 25007KT 17/15 A2997 RMK A01 T01730152  RH  088%=      5-min Rain = 0
KWT1 251117Z 25007KT 17/15 A2997 RMK A01 T01740152  RH  087%=      5-min Rain = 0
KWT1 251118Z 25007KT 18/15 A2997 RMK A01 T01750152  RH  086%=      5-min Rain = 0
KWT1 251119Z 25007KT 18/15 A2997 RMK A01 T01760152  RH  086%=      5-min Rain = 0
KWT1 251120Z 25007KT 18/15 A2997 RMK A01 T01770152  RH  086%=      5-min Rain = 0
KWT1 251121Z 25006KT 18/15 A2997 RMK A01 T01770152  RH  085%=      5-min Rain = 0
KWT1 251122Z 25006KT 18/15 A2997 RMK A01 T01770151  RH  085%=      5-min Rain = 0
KWT1 251123Z 25006KT 18/15 A2997 RMK A01 T01770151  RH  085%=      5-min Rain = 0
KWT1 251124Z 25006KT 18/15 A2997 RMK A01 T01770151  RH  085%=      5-min Rain = 0
KWT1 251125Z 25006KT 18/15 A2997 RMK A01 T01770151  RH  085%=      5-min Rain = 0
KWT1 251126Z 25006KT 18/15 A2997 RMK A01 T01770151  RH  085%=      5-min Rain = 0
KWT1 251127Z 25006KT 18/15 A2997 RMK A01 T01770151  RH  085%=      5-min Rain = 0
KWT1 251128Z 25006KT 18/15 A2997 RMK A01 T01770151  RH  085%=      5-min Rain = 0
KWT1 251129Z 25007KT 18/15 A2998 RMK A01 T01770151  RH  085%=      5-min Rain = 0
KWT1 251130Z 25005KT 18/15 A2998 RMK A01 T01760151  RH  085%=      5-min Rain = 0
KWT1 251131Z 25006KT 18/15 A2998 RMK A01 T01760151  RH  085%=      5-min Rain = 0
KWT1 251132Z 26006KT 18/15 A2998 RMK A01 T01750151  RH  086%=      5-min Rain = 0
KWT1 251133Z 26005KT 18/15 A2998 RMK A01 T01750151  RH  086%=      5-min Rain = 0
KWT1 251134Z 25005KT 18/15 A2998 RMK A01 T01750151  RH  086%=      5-min Rain = 0
KWT1 251135Z 25005KT 18/15 A2998 RMK A01 T01750151  RH  086%=      5-min Rain = 0
KWT1 251136Z 25005KT 17/15 A2998 RMK A01 T01740151  RH  086%=      5-min Rain = 0
KWT1 251137Z 25005KT 17/15 A2998 RMK A01 T01740151  RH  086%=      5-min Rain = 0
KWT1 251138Z 26005KT 17/15 A2998 RMK A01 T01740150  RH  086%=      5-min Rain = 0
KWT1 251139Z 26004KT 17/15 A2998 RMK A01 T01740151  RH  086%=      5-min Rain = 0
KWT1 251140Z 26005KT 17/15 A2998 RMK A01 T01740150  RH  086%=      5-min Rain = 0
KWT1 251141Z 26005KT 17/15 A2998 RMK A01 T01730150  RH  086%=      5-min Rain = 0
KWT1 251142Z 26005KT 17/15 A2998 RMK A01 T01730150  RH  086%=      5-min Rain = 0
KWT1 251143Z 26004KT 17/15 A2998 RMK A01 T01720150  RH  087%=      5-min Rain = 0
KWT1 251144Z 26004KT 17/15 A2998 RMK A01 T01720150  RH  087%=      5-min Rain = 0
KWT1 251145Z 25004KT 17/15 A2998 RMK A01 T01720150  RH  087%=      5-min Rain = 0
KWT1 251146Z 25004KT 17/15 A2998 RMK A01 T01730150  RH  087%=      5-min Rain = 0
KWT1 251147Z 25004KT 17/15 A2998 RMK A01 T01730150  RH  086%=      5-min Rain = 0
KWT1 251148Z 25005KT 17/15 A2998 RMK A01 T01730150  RH  086%=      5-min Rain = 0
KWT1 251149Z 25005KT 17/15 A2998 RMK A01 T01730150  RH  086%=      5-min Rain = 0
KWT1 251150Z 24005KT 17/15 A2998 RMK A01 T01730150  RH  086%=      5-min Rain = 0
KWT1 251151Z 24005KT 17/15 A2998 RMK A01 T01730149  RH  086%=      5-min Rain = 0
KWT1 251152Z 24005KT 17/15 A2998 RMK A01 T01740150  RH  086%=      5-min Rain = 0
KWT1 251153Z 24006KT 17/15 A2998 RMK A01 T01730150  RH  086%=      5-min Rain = 0
KWT1 251154Z 24005KT 17/15 A2998 RMK A01 T01730150  RH  086%=      5-min Rain = 0
KWT1 251155Z 24005KT 17/15 A2998 RMK A01 T01730150  RH  086%=      5-min Rain = 0
KWT1 251156Z 24005KT 17/15 A2999 RMK A01 T01730149  RH  086%=      5-min Rain = 0
KWT1 251157Z 24005KT 17/15 A2999 RMK A01 T01740149  RH  086%=      5-min Rain = 0
KWT1 251158Z 24006KT 17/15 A2999 RMK A01 T01740149  RH  085%=      5-min Rain = 0
KWT1 251159Z 25004KT 18/15 A2999 RMK A01 T01750149  RH  085%=      5-min Rain = 0
KWT1 251200Z 25005KT 18/15 A2999 RMK A01 T01750149  RH  085%=      5-min Rain = 0
KWT1 251201Z 25005KT 18/15 A2999 RMK A01 T01750149  RH  085%=      5-min Rain = 0
KWT1 251202Z 25004KT 18/15 A2999 RMK A01 T01750149  RH  085%=      5-min Rain = 0
KWT1 251203Z 25004KT 18/15 A2999 RMK A01 T01760150  RH  085%=      5-min Rain = 0
KWT1 251204Z 25004KT 18/15 A2999 RMK A01 T01760150  RH  084%=      5-min Rain = 0
KWT1 251205Z 25004KT 18/15 A2999 RMK A01 T01770150  RH  084%=      5-min Rain = 0
KWT1 251206Z 25004KT 18/15 A2999 RMK A01 T01770150  RH  084%=      5-min Rain = 0
KWT1 251207Z 25004KT 18/15 A2999 RMK A01 T01770150  RH  084%=      5-min Rain = 0
KWT1 251208Z 25004KT 18/15 A2999 RMK A01 T01780150  RH  084%=      5-min Rain = 0
KWT1 251209Z 25004KT 18/15 A2999 RMK A01 T01780150  RH  083%=      5-min Rain = 0
KWT1 251210Z 26004KT 18/15 A2999 RMK A01 T01780150  RH  083%=      5-min Rain = 0
KWT1 251211Z 25004KT 18/15 A2999 RMK A01 T01790150  RH  083%=      5-min Rain = 0
KWT1 251212Z 25003KT 18/15 A2999 RMK A01 T01790150  RH  083%=      5-min Rain = 0
KWT1 251213Z 26003KT 18/15 A2999 RMK A01 T01790150  RH  083%=      5-min Rain = 0
KWT1 251214Z 26004KT 18/15 A2999 RMK A01 T01790150  RH  083%=      5-min Rain = 0
KWT1 251215Z 26003KT 18/15 A2999 RMK A01 T01800150  RH  083%=      5-min Rain = 0
KWT1 251216Z 26003KT 18/15 A2999 RMK A01 T01800151  RH  083%=      5-min Rain = 0
KWT1 251217Z 26003KT 18/15 A2999 RMK A01 T01800151  RH  083%=      5-min Rain = 0
KWT1 251218Z 27003KT 18/15 A2999 RMK A01 T01810151  RH  083%=      5-min Rain = 0
KWT1 251219Z 27003KT 18/15 A2999 RMK A01 T01810151  RH  083%=      5-min Rain = 0
KWT1 251220Z 27003KT 18/15 A2999 RMK A01 T01810151  RH  083%=      5-min Rain = 0
KWT1 251221Z 27003KT 18/15 A2999 RMK A01 T01820152  RH  083%=      5-min Rain = 0
KWT1 251222Z 27003KT 18/15 A2999 RMK A01 T01820152  RH  083%=      5-min Rain = 0
KWT1 251223Z 27002KT 18/15 A2999 RMK A01 T01830152  RH  082%=      5-min Rain = 0
KWT1 251224Z 27003KT 18/15 A2999 RMK A01 T01830152  RH  082%=      5-min Rain = 0
KWT1 251225Z 26003KT 18/15 A2999 RMK A01 T01830152  RH  082%=      5-min Rain = 0
KWT1 251226Z 26003KT 18/15 A2999 RMK A01 T01840153  RH  082%=      5-min Rain = 0
KWT1 251227Z 26002KT 18/15 A2999 RMK A01 T01840154  RH  082%=      5-min Rain = 0
KWT1 251228Z 25003KT 19/15 A2999 RMK A01 T01850154  RH  082%=      5-min Rain = 0
KWT1 251229Z 26004KT 19/15 A2999 RMK A01 T01850154  RH  082%=      5-min Rain = 0
KWT1 251230Z 26005KT 19/15 A2999 RMK A01 T01860154  RH  082%=      5-min Rain = 0
KWT1 251231Z 26004KT 19/15 A2999 RMK A01 T01860154  RH  081%=      5-min Rain = 0
KWT1 251232Z 25005KT 19/15 A2999 RMK A01 T01870154  RH  081%=      5-min Rain = 0
KWT1 251233Z 26005KT 19/15 A2999 RMK A01 T01870154  RH  081%=      5-min Rain = 0
KWT1 251234Z 25005KT 19/16 A2999 RMK A01 T01880155  RH  081%=      5-min Rain = 0
KWT1 251235Z 25006KT 19/16 A2999 RMK A01 T01890155  RH  081%=      5-min Rain = 0
KWT1 251236Z 25005KT 19/16 A2999 RMK A01 T01890155  RH  081%=      5-min Rain = 0
KWT1 251237Z 26005KT 19/16 A2999 RMK A01 T01900156  RH  081%=      5-min Rain = 0
KWT1 251238Z 25006KT 19/16 A2999 RMK A01 T01900156  RH  081%=      5-min Rain = 0
KWT1 251239Z 25005KT 19/16 A2999 RMK A01 T01910156  RH  080%=      5-min Rain = 0
KWT1 251240Z 25006KT 19/16 A2999 RMK A01 T01910156  RH  080%=      5-min Rain = 0
KWT1 251241Z 25006KT 19/16 A2999 RMK A01 T01920157  RH  080%=      5-min Rain = 0
KWT1 251242Z 24005KT 19/16 A2999 RMK A01 T01920157  RH  080%=      5-min Rain = 0
KWT1 251243Z 24005KT 19/16 A2999 RMK A01 T01930157  RH  080%=      5-min Rain = 0
KWT1 251244Z 24006KT 19/16 A2999 RMK A01 T01930158  RH  080%=      5-min Rain = 0
KWT1 251245Z 24005KT 19/16 A2999 RMK A01 T01940158  RH  080%=      5-min Rain = 0
KWT1 251246Z 24007KT 19/16 A2999 RMK A01 T01940158  RH  080%=      5-min Rain = 0
KWT1 251247Z 24007KT 20/16 A2999 RMK A01 T01950158  RH  079%=      5-min Rain = 0
KWT1 251248Z 25007KT 20/16 A2999 RMK A01 T01950158  RH  079%=      5-min Rain = 0
KWT1 251249Z 25006KT 20/16 A2999 RMK A01 T01960159  RH  079%=      5-min Rain = 0
KWT1 251250Z 25006KT 20/16 A2999 RMK A01 T01960159  RH  079%=      5-min Rain = 0
KWT1 251251Z 25006KT 20/16 A2999 RMK A01 T01970160  RH  079%=      5-min Rain = 0
KWT1 251252Z 24006KT 20/16 A2999 RMK A01 T01970159  RH  078%=      5-min Rain = 0
KWT1 251253Z 25006KT 20/16 A2999 RMK A01 T01980159  RH  078%=      5-min Rain = 0
KWT1 251254Z 25006KT 20/16 A2999 RMK A01 T01990159  RH  078%=      5-min Rain = 0
KWT1 251255Z 25005KT 20/16 A2999 RMK A01 T02000160  RH  078%=      5-min Rain = 0
KWT1 251256Z 25005KT 20/16 A2999 RMK A01 T02000161  RH  078%=      5-min Rain = 0
KWT1 251257Z 25006KT 20/16 A2999 RMK A01 T02010161  RH  078%=      5-min Rain = 0
KWT1 251258Z 25006KT 20/16 A2999 RMK A01 T02020161  RH  077%=      5-min Rain = 0
KWT1 251259Z 25005KT 20/16 A2999 RMK A01 T02020161  RH  077%=      5-min Rain = 0
KWT1 251300Z 26005KT 20/16 A2999 RMK A01 T02030162  RH  077%=      5-min Rain = 0
KWT1 251301Z 25007KT 20/16 A2999 RMK A01 T02030160  RH  076%=      5-min Rain = 0
KWT1 251302Z 25006KT 20/16 A2999 RMK A01 T02040161  RH  077%=      5-min Rain = 0
KWT1 251303Z 25006KT 20/16 A2999 RMK A01 T02040162  RH  077%=      5-min Rain = 0
KWT1 251304Z 25008KT 21/16 A2999 RMK A01 T02050162  RH  076%=      5-min Rain = 0
KWT1 251305Z 25006KT 21/16 A2999 RMK A01 T02060162  RH  076%=      5-min Rain = 0
KWT1 251306Z 24006KT 21/16 A2999 RMK A01 T02050162  RH  076%=      5-min Rain = 0
KWT1 251307Z 25006KT 21/16 A2999 RMK A01 T02050163  RH  076%=      5-min Rain = 0
KWT1 251308Z 24006KT 21/16 A2999 RMK A01 T02070164  RH  076%=      5-min Rain = 0
KWT1 251309Z 24009KT 21/16 A2999 RMK A01 T02070163  RH  076%=      5-min Rain = 0
KWT1 251310Z 24008KT 21/16 A2999 RMK A01 T02070161  RH  075%=      5-min Rain = 0
KWT1 251311Z 24006KT 21/16 A2999 RMK A01 T02070162  RH  075%=      5-min Rain = 0
KWT1 251312Z 24008KT 21/16 A2999 RMK A01 T02080163  RH  075%=      5-min Rain = 0
KWT1 251313Z 24007KT 21/16 A2999 RMK A01 T02080162  RH  075%=      5-min Rain = 0
KWT1 251314Z 24008KT 21/16 A2999 RMK A01 T02080161  RH  074%=      5-min Rain = 0
KWT1 251315Z 24008KT 21/16 A2999 RMK A01 T02090162  RH  075%=      5-min Rain = 0
KWT1 251316Z 24008KT 21/16 A2999 RMK A01 T02090162  RH  075%=      5-min Rain = 0
KWT1 251317Z 23007KT 21/16 A2999 RMK A01 T02100163  RH  074%=      5-min Rain = 0
KWT1 251318Z 24007KT 21/16 A2999 RMK A01 T02100163  RH  074%=      5-min Rain = 0
KWT1 251319Z 24005KT 21/16 A30 RMK A01 T02110164  RH  075%=      5-min Rain = 0
KWT1 251320Z 24005KT 21/17 A30 RMK A01 T02120165  RH  074%=      5-min Rain = 0
KWT1 251321Z 24008KT 21/17 A30 RMK A01 T02140166  RH  074%=      5-min Rain = 0
KWT1 251322Z 24008KT 21/16 A30 RMK A01 T02140162  RH  072%=      5-min Rain = 0
KWT1 251323Z 24007KT 21/16 A30 RMK A01 T02140163  RH  073%=      5-min Rain = 0
KWT1 251324Z 23007KT 22/16 A30 RMK A01 T02150164  RH  073%=      5-min Rain = 0
KWT1 251325Z 24008KT 22/16 A2999 RMK A01 T02160163  RH  072%=      5-min Rain = 0
KWT1 251326Z 25008KT 22/16 A30 RMK A01 T02160162  RH  071%=      5-min Rain = 0
KWT1 251327Z 24007KT 22/16 A30 RMK A01 T02160163  RH  072%=      5-min Rain = 0
KWT1 251328Z 24008KT 22/16 A30 RMK A01 T02160162  RH  071%=      5-min Rain = 0
KWT1 251329Z 23009KT 22/16 A30 RMK A01 T02160164  RH  072%=      5-min Rain = 0
KWT1 251330Z 24010KT 22/16 A30 RMK A01 T02170164  RH  072%=      5-min Rain = 0
KWT1 251331Z 24009KT 22/16 A30 RMK A01 T02170163  RH  071%=      5-min Rain = 0
KWT1 251332Z 23008KT 22/16 A30 RMK A01 T02170164  RH  072%=      5-min Rain = 0
KWT1 251333Z 24011KT 22/16 A2999 RMK A01 T02180163  RH  071%=      5-min Rain = 0
KWT1 251334Z 23008KT 22/16 A30 RMK A01 T02180163  RH  071%=      5-min Rain = 0
KWT1 251335Z 24009KT 22/17 A30 RMK A01 T02190165  RH  071%=      5-min Rain = 0
KWT1 251336Z 23011KT 22/16 A2999 RMK A01 T02190164  RH  071%=      5-min Rain = 0
KWT1 251337Z 24012KT 22/16 A2999 RMK A01 T02200163  RH  070%=      5-min Rain = 0
KWT1 251338Z 23010G15KT 22/16 A30 RMK A01 T02200164  RH  071%=      5-min Rain = 0
KWT1 251339Z 24012KT 22/16 A2999 RMK A01 T02200163  RH  070%=      5-min Rain = 0
KWT1 251340Z 24009KT 22/16 A2999 RMK A01 T02200164  RH  070%=      5-min Rain = 0
KWT1 251341Z 24010KT 22/17 A2999 RMK A01 T02210165  RH  071%=      5-min Rain = 0
KWT1 251342Z 24009KT 22/16 A2999 RMK A01 T02210164  RH  070%=      5-min Rain = 0
KWT1 251343Z 24009KT 22/17 A2999 RMK A01 T02220165  RH  070%=      5-min Rain = 0
KWT1 251344Z 23010G15KT 22/17 A2999 RMK A01 T02230165  RH  070%=      5-min Rain = 0
KWT1 251345Z 23012KT 22/17 A2999 RMK A01 T02240165  RH  069%=      5-min Rain = 0
KWT1 251346Z 24010KT 22/16 A2999 RMK A01 T02240164  RH  069%=      5-min Rain = 0
KWT1 251347Z 24014KT 22/16 A2999 RMK A01 T02240163  RH  068%=      5-min Rain = 0
KWT1 251348Z 23014KT 23/17 A2999 RMK A01 T02250165  RH  069%=      5-min Rain = 0
KWT1 251349Z 24012G17KT 23/16 A2999 RMK A01 T02250164  RH  069%=      5-min Rain = 0
KWT1 251350Z 24016KT 23/16 A2999 RMK A01 T02250163  RH  068%=      5-min Rain = 0
KWT1 251351Z 24013KT 23/16 A2999 RMK A01 T02260164  RH  068%=      5-min Rain = 0
KWT1 251352Z 24011KT 23/17 A2999 RMK A01 T02270165  RH  068%=      5-min Rain = 0
KWT1 251353Z 24011KT 23/16 A2999 RMK A01 T02270164  RH  068%=      5-min Rain = 0
KWT1 251354Z 24012KT 23/17 A2999 RMK A01 T02280165  RH  068%=      5-min Rain = 0
KWT1 251355Z 23011KT 23/17 A2999 RMK A01 T02280165  RH  068%=      5-min Rain = 0
KWT1 251356Z 25013KT 23/17 A2999 RMK A01 T02290166  RH  068%=      5-min Rain = 0
KWT1 251357Z 25017KT 23/16 A2999 RMK A01 T02290164  RH  067%=      5-min Rain = 0
KWT1 251358Z 25012KT 23/16 A30 RMK A01 T02280163  RH  067%=      5-min Rain = 0
KWT1 251359Z 24010KT 23/17 A30 RMK A01 T02280165  RH  068%=      5-min Rain = 0
KWT1 251400Z 24012KT 23/17 A30 RMK A01 T02290166  RH  068%=      5-min Rain = 0
KWT1 251401Z 24010KT 23/17 A30 RMK A01 T02290166  RH  067%=      5-min Rain = 0
KWT1 251402Z 23010KT 23/17 A30 RMK A01 T02300166  RH  067%=      5-min Rain = 0
KWT1 251403Z 24011KT 23/17 A30 RMK A01 T02310167  RH  067%=      5-min Rain = 0
KWT1 251404Z 24011KT 23/17 A30 RMK A01 T02310167  RH  067%=      5-min Rain = 0
KWT1 251405Z 23009G14KT 23/17 A30 RMK A01 T02320167  RH  067%=      5-min Rain = 0
KWT1 251406Z 24010KT 23/17 A30 RMK A01 T02320168  RH  067%=      5-min Rain = 0
KWT1 251407Z 24009KT 23/17 A30 RMK A01 T02320168  RH  067%=      5-min Rain = 0
KWT1 251408Z 24009KT 23/17 A30 RMK A01 T02340169  RH  067%=      5-min Rain = 0
KWT1 251409Z 23009KT 23/17 A30 RMK A01 T02340170  RH  067%=      5-min Rain = 0
KWT1 251410Z 23007KT 24/17 A30 RMK A01 T02350170  RH  067%=      5-min Rain = 0
KWT1 251411Z 24011KT 24/17 A30 RMK A01 T02360171  RH  067%=      5-min Rain = 0
KWT1 251412Z 24011KT 24/17 A30 RMK A01 T02360169  RH  066%=      5-min Rain = 0
KWT1 251413Z 25011KT 24/17 A30 RMK A01 T02350168  RH  066%=      5-min Rain = 0
KWT1 251414Z 24013KT 24/17 A30 RMK A01 T02350168  RH  066%=      5-min Rain = 0
KWT1 251415Z 24012KT 23/17 A30 RMK A01 T02340168  RH  066%=      5-min Rain = 0
KWT1 251416Z 23011KT 24/17 A30 RMK A01 T02350168  RH  066%=      5-min Rain = 0
KWT1 251417Z 25009KT 23/17 A30 RMK A01 T02340169  RH  067%=      5-min Rain = 0
KWT1 251418Z 25014KT 24/17 A30 RMK A01 T02350169  RH  066%=      5-min Rain = 0
KWT1 251419Z 25011KT 24/17 A30 RMK A01 T02360168  RH  066%=      5-min Rain = 0
KWT1 251420Z 24011KT 24/17 A30 RMK A01 T02370170  RH  066%=      5-min Rain = 0
KWT1 251421Z 25011KT 24/17 A30 RMK A01 T02370168  RH  065%=      5-min Rain = 0
KWT1 251422Z 26012KT 24/17 A30 RMK A01 T02370169  RH  066%=      5-min Rain = 0
KWT1 251423Z 25014KT 24/17 A30 RMK A01 T02370168  RH  065%=      5-min Rain = 0
KWT1 251424Z 25014KT 24/17 A30 RMK A01 T02370167  RH  065%=      5-min Rain = 0
KWT1 251425Z 25013KT 24/17 A30 RMK A01 T02370167  RH  065%=      5-min Rain = 0
KWT1 251426Z 25014KT 24/17 A30 RMK A01 T02370167  RH  065%=      5-min Rain = 0
KWT1 251427Z 24013KT 24/17 A3001 RMK A01 T02370168  RH  065%=      5-min Rain = 0
KWT1 251428Z 25011KT 24/17 A3001 RMK A01 T02380169  RH  065%=      5-min Rain = 0
KWT1 251429Z 25012KT 24/17 A3001 RMK A01 T02400170  RH  065%=      5-min Rain = 0
KWT1 251430Z 25013KT 24/17 A3001 RMK A01 T02400168  RH  064%=      5-min Rain = 0
KWT1 251431Z 25011KT 24/17 A3001 RMK A01 T02400168  RH  064%=      5-min Rain = 0
KWT1 251432Z 25009KT 24/17 A3001 RMK A01 T02400169  RH  064%=      5-min Rain = 0
KWT1 251433Z 24013KT 24/17 A3001 RMK A01 T02420171  RH  064%=      5-min Rain = 0
KWT1 251434Z 24011KT 24/17 A3001 RMK A01 T02420170  RH  064%=      5-min Rain = 0
KWT1 251435Z 25011KT 24/17 A3001 RMK A01 T02430170  RH  064%=      5-min Rain = 0
KWT1 251436Z 25013KT 24/17 A3001 RMK A01 T02440169  RH  063%=      5-min Rain = 0
KWT1 251437Z 25014KT 24/17 A3001 RMK A01 T02430169  RH  063%=      5-min Rain = 0
KWT1 251438Z 24012KT 24/17 A3001 RMK A01 T02430170  RH  064%=      5-min Rain = 0
KWT1 251439Z 25011KT 24/17 A3001 RMK A01 T02440171  RH  064%=      5-min Rain = 0
KWT1 251440Z 25011KT 25/17 A3001 RMK A01 T02450172  RH  064%=      5-min Rain = 0
KWT1 251441Z 25010KT 25/17 A3001 RMK A01 T02470172  RH  063%=      5-min Rain = 0
KWT1 251442Z 25012KT 25/17 A3001 RMK A01 T02480172  RH  063%=      5-min Rain = 0
KWT1 251443Z 23014KT 25/17 A3001 RMK A01 T02480170  RH  062%=      5-min Rain = 0
KWT1 251444Z 24010KT 25/17 A3001 RMK A01 T02470170  RH  062%=      5-min Rain = 0
KWT1 251445Z 23010G15KT 25/17 A3001 RMK A01 T02480173  RH  063%=      5-min Rain = 0
KWT1 251446Z 24014KT 25/17 A3001 RMK A01 T02490169  RH  061%=      5-min Rain = 0
KWT1 251447Z 24013G18KT 25/17 A3001 RMK A01 T02480168  RH  061%=      5-min Rain = 0
KWT1 251448Z 24014KT 25/17 A3001 RMK A01 T02480168  RH  061%=      5-min Rain = 0
KWT1 251449Z 25013KT 25/17 A3001 RMK A01 T02470168  RH  061%=      5-min Rain = 0
KWT1 251450Z 24012KT 25/17 A3001 RMK A01 T02480168  RH  061%=      5-min Rain = 0
KWT1 251451Z 24010KT 25/17 A3001 RMK A01 T02470170  RH  062%=      5-min Rain = 0
KWT1 251452Z 24013KT 25/17 A3001 RMK A01 T02480171  RH  062%=      5-min Rain = 0
KWT1 251453Z 24011KT 25/17 A3001 RMK A01 T02490171  RH  062%=      5-min Rain = 0
KWT1 251454Z 24012KT 25/17 A3001 RMK A01 T02500170  RH  061%=      5-min Rain = 0
KWT1 251455Z 23011KT 25/17 A3001 RMK A01 T02500170  RH  061%=      5-min Rain = 0
KWT1 251456Z 23011KT 25/17 A3001 RMK A01 T02500171  RH  061%=      5-min Rain = 0
KWT1 251457Z 23009KT 25/17 A3001 RMK A01 T02510173  RH  062%=      5-min Rain = 0
KWT1 251458Z 24010KT 25/18 A3001 RMK A01 T02530176  RH  062%=      5-min Rain = 0
KWT1 251459Z 25014KT 25/17 A3001 RMK A01 T02540172  RH  060%=      5-min Rain = 0
KWT1 251500Z 24013KT 25/17 A3001 RMK A01 T02540172  RH  060%=      5-min Rain = 0
KWT1 251501Z 24011KT 25/17 A3001 RMK A01 T02540171  RH  060%=      5-min Rain = 0
KWT1 251502Z 24011KT 25/17 A3001 RMK A01 T02540173  RH  061%=      5-min Rain = 0
KWT1 251503Z 25012KT 25/17 A3001 RMK A01 T02540170  RH  060%=      5-min Rain = 0
KWT1 251504Z 23009KT 25/17 A3001 RMK A01 T02530173  RH  061%=      5-min Rain = 0
KWT1 251505Z 23011KT 26/17 A3001 RMK A01 T02550173  RH  060%=      5-min Rain = 0
KWT1 251506Z 23010KT 26/17 A3001 RMK A01 T02550171  RH  060%=      5-min Rain = 0
KWT1 251507Z 22010KT 25/17 A3001 RMK A01 T02540172  RH  060%=      5-min Rain = 0
KWT1 251508Z 22009G14KT 26/17 A3001 RMK A01 T02550172  RH  060%=      5-min Rain = 0
KWT1 251509Z 22008KT 26/17 A3002 RMK A01 T02560174  RH  061%=      5-min Rain = 0
KWT1 251510Z 22009KT 26/17 A3002 RMK A01 T02560173  RH  060%=      5-min Rain = 0
KWT1 251511Z 23008KT 26/17 A3002 RMK A01 T02560173  RH  060%=      5-min Rain = 0
KWT1 251512Z 21007KT 26/17 A3002 RMK A01 T02560174  RH  060%=      5-min Rain = 0
KWT1 251513Z 21010KT 26/18 A3002 RMK A01 T02570176  RH  061%=      5-min Rain = 0
KWT1 251514Z 22009KT 26/17 A3002 RMK A01 T02580172  RH  059%=      5-min Rain = 0
KWT1 251515Z 21009KT 26/17 A3002 RMK A01 T02570174  RH  060%=      5-min Rain = 0
KWT1 251516Z 23009KT 26/17 A3002 RMK A01 T02570174  RH  060%=      5-min Rain = 0
KWT1 251517Z 23009KT 26/17 A3002 RMK A01 T02580174  RH  060%=      5-min Rain = 0
KWT1 251518Z 25009KT 26/17 A3002 RMK A01 T02580174  RH  060%=      5-min Rain = 0
KWT1 251519Z 25008KT 26/18 A3002 RMK A01 T02590175  RH  060%=      5-min Rain = 0
KWT1 251520Z 25008KT 26/17 A3002 RMK A01 T02590174  RH  059%=      5-min Rain = 0
KWT1 251521Z 24006KT 26/17 A3002 RMK A01 T02590173  RH  059%=      5-min Rain = 0
KWT1 251522Z 23007KT 26/18 A3002 RMK A01 T02600177  RH  060%=      5-min Rain = 0
KWT1 251523Z 25007KT 26/18 A3002 RMK A01 T02620176  RH  059%=      5-min Rain = 0
KWT1 251524Z 24008KT 26/18 A3002 RMK A01 T02630177  RH  059%=      5-min Rain = 0
KWT1 251525Z 22008KT 26/17 A3002 RMK A01 T02640172  RH  057%=      5-min Rain = 0
KWT1 251526Z 22009KT 26/17 A3002 RMK A01 T02610171  RH  058%=      5-min Rain = 0
KWT1 251527Z 22009KT 26/17 A3002 RMK A01 T02590170  RH  058%=      5-min Rain = 0
KWT1 251528Z 23007KT 26/17 A3002 RMK A01 T02590174  RH  059%=      5-min Rain = 0
KWT1 251529Z 23007KT 26/18 A3002 RMK A01 T02620178  RH  060%=      5-min Rain = 0
KWT1 251530Z 23007KT 26/18 A3002 RMK A01 T02640177  RH  059%=      5-min Rain = 0
KWT1 251531Z 23008KT 26/18 A3002 RMK A01 T02640177  RH  059%=      5-min Rain = 0
KWT1 251532Z 23008KT 27/17 A3002 RMK A01 T02650174  RH  057%=      5-min Rain = 0
KWT1 251533Z 25010KT 26/17 A3002 RMK A01 T02640174  RH  058%=      5-min Rain = 0
KWT1 251534Z 25009KT 26/17 A3002 RMK A01 T02630173  RH  058%=      5-min Rain = 0
KWT1 251535Z 25008KT 26/18 A3002 RMK A01 T02630175  RH  058%=      5-min Rain = 0
KWT1 251536Z 24010KT 26/18 A3002 RMK A01 T02640177  RH  059%=      5-min Rain = 0
KWT1 251537Z 24009KT 27/18 A3002 RMK A01 T02650177  RH  059%=      5-min Rain = 0
KWT1 251538Z 24009KT 27/18 A3002 RMK A01 T02660176  RH  058%=      5-min Rain = 0
KWT1 251539Z 23008KT 27/17 A3002 RMK A01 T02660174  RH  057%=      5-min Rain = 0
KWT1 251540Z 23008KT 27/17 A3002 RMK A01 T02650174  RH  057%=      5-min Rain = 0
KWT1 251541Z 23009KT 27/18 A3002 RMK A01 T02660176  RH  058%=      5-min Rain = 0
KWT1 251542Z 22008KT 27/18 A3002 RMK A01 T02660175  RH  057%=      5-min Rain = 0
KWT1 251543Z 22008KT 27/17 A3002 RMK A01 T02660172  RH  057%=      5-min Rain = 0
KWT1 251544Z 22009KT 27/18 A3002 RMK A01 T02660175  RH  057%=      5-min Rain = 0
KWT1 251545Z 22011KT 27/17 A3002 RMK A01 T02670174  RH  057%=      5-min Rain = 0
KWT1 251546Z 22008KT 27/17 A3002 RMK A01 T02660174  RH  057%=      5-min Rain = 0
KWT1 251547Z 22007KT 27/18 A3002 RMK A01 T02660175  RH  057%=      5-min Rain = 0
KWT1 251548Z 19008KT 27/18 A3002 RMK A01 T02670175  RH  057%=      5-min Rain = 0
KWT1 251549Z 20006KT 27/18 A3002 RMK A01 T02680176  RH  057%=      5-min Rain = 0
KWT1 251550Z 21009KT 27/18 A3002 RMK A01 T02690176  RH  056%=      5-min Rain = 0
KWT1 251551Z 22009KT 27/18 A3002 RMK A01 T02690175  RH  056%=      5-min Rain = 0
KWT1 251552Z 23009KT 27/18 A3002 RMK A01 T02690178  RH  057%=      5-min Rain = 0
KWT1 251553Z 24009KT 27/18 A3002 RMK A01 T02720179  RH  057%=      5-min Rain = 0
KWT1 251554Z 24008KT 27/18 A3002 RMK A01 T02710175  RH  056%=      5-min Rain = 0
KWT1 251555Z 24007KT 27/17 A3002 RMK A01 T02700174  RH  056%=      5-min Rain = 0
KWT1 251556Z 23008KT 27/18 A3002 RMK A01 T02700177  RH  057%=      5-min Rain = 0
KWT1 251557Z 21010KT 27/17 A3002 RMK A01 T02710174  RH  055%=      5-min Rain = 0
KWT1 251558Z 20008KT 27/17 A3002 RMK A01 T02690174  RH  056%=      5-min Rain = 0
KWT1 251559Z 21009KT 27/18 A3002 RMK A01 T02690175  RH  056%=      5-min Rain = 0
KWT1 251600Z 22007KT 27/18 A3002 RMK A01 T02700177  RH  057%=      5-min Rain = 0
KWT1 251601Z 21005KT 27/18 A3002 RMK A01 T02720179  RH  057%=      5-min Rain = 0
KWT1 251602Z 22005KT 27/18 A3002 RMK A01 T02740181  RH  057%=      5-min Rain = 0
KWT1 251603Z 21006KT 28/18 A3002 RMK A01 T02770180  RH  056%=      5-min Rain = 0
KWT1 251604Z 21008KT 28/18 A3002 RMK A01 T02780182  RH  056%=      5-min Rain = 0
KWT1 251605Z 21007KT 28/18 A3002 RMK A01 T02790180  RH  055%=      5-min Rain = 0
KWT1 251606Z 21007KT 28/18 A3002 RMK A01 T02790178  RH  054%=      5-min Rain = 0
KWT1 251607Z 21008KT 28/18 A3002 RMK A01 T02780177  RH  054%=      5-min Rain = 0
KWT1 251608Z 22007KT 28/17 A3002 RMK A01 T02750174  RH  054%=      5-min Rain = 0
KWT1 251609Z 23007KT 27/18 A3002 RMK A01 T02740175  RH  055%=      5-min Rain = 0
KWT1 251610Z 23009KT 27/18 A3002 RMK A01 T02730180  RH  057%=      5-min Rain = 0
KWT1 251611Z 23008KT 28/18 A3002 RMK A01 T02760180  RH  056%=      5-min Rain = 0
KWT1 251612Z 23007KT 28/18 A3002 RMK A01 T02770178  RH  055%=      5-min Rain = 0
KWT1 251613Z 24009KT 28/18 A3002 RMK A01 T02770179  RH  055%=      5-min Rain = 0
KWT1 251614Z 23005KT 28/18 A3002 RMK A01 T02770179  RH  055%=      5-min Rain = 0
KWT1 251615Z 23007KT 28/18 A3002 RMK A01 T02760177  RH  055%=      5-min Rain = 0
KWT1 251616Z 25002KT 28/18 A3002 RMK A01 T02750175  RH  054%=      5-min Rain = 0
KWT1 251617Z 22003KT 27/18 A3002 RMK A01 T02740180  RH  056%=      5-min Rain = 0
KWT1 251618Z 21005KT 28/18 A3002 RMK A01 T02780182  RH  056%=      5-min Rain = 0
KWT1 251619Z 18006KT 28/18 A3002 RMK A01 T02800177  RH  054%=      5-min Rain = 0
KWT1 251620Z 20006KT 28/18 A3002 RMK A01 T02780178  RH  054%=      5-min Rain = 0
KWT1 251621Z 20005KT 28/18 A3002 RMK A01 T02780177  RH  054%=      5-min Rain = 0
KWT1 251622Z 18007KT 28/18 A3002 RMK A01 T02780181  RH  055%=      5-min Rain = 0
KWT1 251623Z 19004KT 28/18 A3002 RMK A01 T02800179  RH  054%=      5-min Rain = 0
KWT1 251624Z 19005KT 28/18 A3002 RMK A01 T02810177  RH  053%=      5-min Rain = 0
KWT1 251625Z 19006KT 28/18 A3002 RMK A01 T02780175  RH  053%=      5-min Rain = 0
KWT1 251626Z 19006KT 28/18 A3002 RMK A01 T02770178  RH  055%=      5-min Rain = 0
KWT1 251627Z 19007KT 28/18 A3002 RMK A01 T02770179  RH  055%=      5-min Rain = 0
KWT1 251628Z 19005KT 28/18 A3003 RMK A01 T02800181  RH  055%=      5-min Rain = 0
KWT1 251629Z 19007KT 28/19 A3003 RMK A01 T02820185  RH  056%=      5-min Rain = 0
KWT1 251630Z 18007KT 28/18 A3003 RMK A01 T02830183  RH  055%=      5-min Rain = 0
KWT1 251631Z 16008KT 28/18 A3003 RMK A01 T02830184  RH  055%=      5-min Rain = 0
KWT1 251632Z 15009KT 28/18 A3003 RMK A01 T02840180  RH  053%=      5-min Rain = 0
KWT1 251633Z 15006KT 28/18 A3003 RMK A01 T02830179  RH  053%=      5-min Rain = 0
KWT1 251634Z 15005KT 28/18 A3003 RMK A01 T02820179  RH  054%=      5-min Rain = 0
KWT1 251635Z 15009KT 28/18 A3003 RMK A01 T02820182  RH  055%=      5-min Rain = 0
KWT1 251636Z 19007KT 28/18 A3003 RMK A01 T02830180  RH  053%=      5-min Rain = 0
KWT1 251637Z 17006KT 28/18 A3003 RMK A01 T02830181  RH  054%=      5-min Rain = 0
KWT1 251638Z 20005KT 29/18 A3003 RMK A01 T02850179  RH  053%=      5-min Rain = 0
KWT1 251639Z 21004KT 28/18 A3003 RMK A01 T02830180  RH  053%=      5-min Rain = 0
KWT1 251640Z 20004KT 28/18 A3003 RMK A01 T02840179  RH  053%=      5-min Rain = 0
KWT1 251641Z 22004KT 28/18 A3003 RMK A01 T02840181  RH  054%=      5-min Rain = 0
KWT1 251642Z 21004KT 28/18 A3003 RMK A01 T02840180  RH  053%=      5-min Rain = 0
KWT1 251643Z 20004G9KT 29/18 A3003 RMK A01 T02850183  RH  054%=      5-min Rain = 0
KWT1 251644Z 19007KT 29/18 A3003 RMK A01 T02860179  RH  052%=      5-min Rain = 0
KWT1 251645Z 19006KT 29/18 A3003 RMK A01 T02850175  RH  051%=      5-min Rain = 0
KWT1 251646Z 20003KT 28/17 A3003 RMK A01 T02820172  RH  051%=      5-min Rain = 0
KWT1 251647Z 21006KT 28/18 A3003 RMK A01 T02820181  RH  054%=      5-min Rain = 0
KWT1 251648Z 20008KT 29/18 A3003 RMK A01 T02850180  RH  053%=      5-min Rain = 0
KWT1 251649Z 19008KT 29/18 A3003 RMK A01 T02850178  RH  053%=      5-min Rain = 0
KWT1 251650Z 19006KT 28/18 A3003 RMK A01 T02830176  RH  052%=      5-min Rain = 0
KWT1 251651Z 21004KT 28/18 A3003 RMK A01 T02820176  RH  053%=      5-min Rain = 0
KWT1 251652Z 22005KT 28/18 A3003 RMK A01 T02810178  RH  053%=      5-min Rain = 0
KWT1 251653Z 21006KT 28/18 A3003 RMK A01 T02830181  RH  054%=      5-min Rain = 0
KWT1 251654Z 16007KT 29/18 A3003 RMK A01 T02870183  RH  053%=      5-min Rain = 0
KWT1 251655Z 17008KT 29/18 A3003 RMK A01 T02910184  RH  052%=      5-min Rain = 0
KWT1 251656Z 16008KT 29/18 A3003 RMK A01 T02920182  RH  052%=      5-min Rain = 0
KWT1 251657Z 17010KT 29/18 A3003 RMK A01 T02920183  RH  052%=      5-min Rain = 0
KWT1 251658Z 18008KT 29/18 A3003 RMK A01 T02900179  RH  051%=      5-min Rain = 0
KWT1 251659Z 17009KT 29/18 A3003 RMK A01 T02890179  RH  051%=      5-min Rain = 0
KWT1 251700Z 17008KT 29/18 A3003 RMK A01 T02870176  RH  051%=      5-min Rain = 0
KWT1 251701Z 16010KT 29/18 A3003 RMK A01 T02850177  RH  052%=      5-min Rain = 0
KWT1 251702Z 17007KT 29/18 A3003 RMK A01 T02850175  RH  052%=      5-min Rain = 0
KWT1 251703Z 17007KT 29/18 A3003 RMK A01 T02870178  RH  052%=      5-min Rain = 0
KWT1 251704Z 15006KT 29/18 A3003 RMK A01 T02890178  RH  051%=      5-min Rain = 0
KWT1 251705Z 14007KT 29/18 A3003 RMK A01 T02890179  RH  051%=      5-min Rain = 0
KWT1 251706Z 13007KT 29/18 A3003 RMK A01 T02900180  RH  051%=      5-min Rain = 0
KWT1 251707Z 15004KT 29/18 A3003 RMK A01 T02900177  RH  050%=      5-min Rain = 0
KWT1 251708Z 14004KT 29/18 A3003 RMK A01 T02900177  RH  051%=      5-min Rain = 0
KWT1 251709Z 14006KT 29/18 A3003 RMK A01 T02900182  RH  052%=      5-min Rain = 0
KWT1 251710Z 15008KT 29/18 A3003 RMK A01 T02920182  RH  052%=      5-min Rain = 0
KWT1 251711Z 16007KT 29/18 A3003 RMK A01 T02930181  RH  051%=      5-min Rain = 0
KWT1 251712Z 18007KT 29/18 A3003 RMK A01 T02940179  RH  050%=      5-min Rain = 0
KWT1 251713Z 18008KT 29/18 A3003 RMK A01 T02910177  RH  050%=      5-min Rain = 0
KWT1 251714Z 16007KT 29/18 A3003 RMK A01 T02910182  RH  052%=      5-min Rain = 0
KWT1 251715Z 15006KT 29/18 A3003 RMK A01 T02920182  RH  052%=      5-min Rain = 0
KWT1 251716Z 17003KT 29/18 A3003 RMK A01 T02940183  RH  051%=      5-min Rain = 0
KWT1 251717Z 18004KT 30/18 A3003 RMK A01 T02950184  RH  051%=      5-min Rain = 0
KWT1 251718Z 19005KT 30/18 A3003 RMK A01 T02960180  RH  050%=      5-min Rain = 0
KWT1 251719Z 19004KT 29/18 A3003 RMK A01 T02940180  RH  050%=      5-min Rain = 0
KWT1 251720Z 14006KT 29/18 A3003 RMK A01 T02940183  RH  051%=      5-min Rain = 0
KWT1 251721Z 14006KT 30/18 A3003 RMK A01 T02950183  RH  051%=      5-min Rain = 0
KWT1 251722Z 13005KT 30/18 A3003 RMK A01 T02960181  RH  050%=      5-min Rain = 0
KWT1 251723Z 15004KT 30/18 A3003 RMK A01 T02950184  RH  051%=      5-min Rain = 0
KWT1 251724Z 16005KT 30/18 A3003 RMK A01 T02960183  RH  051%=      5-min Rain = 0
KWT1 251725Z 18004KT 30/18 A3003 RMK A01 T02970179  RH  049%=      5-min Rain = 0
KWT1 251726Z 16006KT 30/18 A3002 RMK A01 T02970181  RH  050%=      5-min Rain = 0
KWT1 251727Z 15006KT 30/19 A3003 RMK A01 T02970186  RH  051%=      5-min Rain = 0
KWT1 251728Z 14007KT 30/18 A3003 RMK A01 T02990181  RH  049%=      5-min Rain = 0
KWT1 251729Z 13006KT 30/18 A3003 RMK A01 T02980183  RH  050%=      5-min Rain = 0
KWT1 251730Z 14006KT 30/18 A3003 RMK A01 T02970181  RH  050%=      5-min Rain = 0
KWT1 251731Z 12005KT 30/18 A3002 RMK A01 T02970183  RH  050%=      5-min Rain = 0
KWT1 251732Z 11005KT 30/18 A3002 RMK A01 T02970182  RH  050%=      5-min Rain = 0
KWT1 251733Z 16006KT 30/18 A3002 RMK A01 T02980182  RH  050%=      5-min Rain = 0
KWT1 251734Z 14006KT 30/18 A3002 RMK A01 T02980177  RH  048%=      5-min Rain = 0
KWT1 251735Z 13008KT 30/18 A3002 RMK A01 T02980184  RH  050%=      5-min Rain = 0
KWT1 251736Z 13008KT 30/18 A3002 RMK A01 T03000181  RH  049%=      5-min Rain = 0
KWT1 251737Z 14006KT 30/18 A3002 RMK A01 T03030180  RH  048%=      5-min Rain = 0
KWT1 251738Z 13006KT 30/18 A3002 RMK A01 T03040184  RH  049%=      5-min Rain = 0
KWT1 251739Z 14007KT 31/19 A3002 RMK A01 T03060185  RH  048%=      5-min Rain = 0
KWT1 251740Z 16009KT 31/18 A3002 RMK A01 T03080182  RH  047%=      5-min Rain = 0
KWT1 251741Z 16007KT 31/18 A3002 RMK A01 T03080178  RH  046%=      5-min Rain = 0
KWT1 251742Z 16006KT 31/18 A3002 RMK A01 T03050176  RH  046%=      5-min Rain = 0
KWT1 251743Z 14004KT 30/18 A3002 RMK A01 T03040179  RH  047%=      5-min Rain = 0
KWT1 251744Z 13008KT 30/18 A3002 RMK A01 T03030179  RH  048%=      5-min Rain = 0
KWT1 251745Z 13008KT 30/18 A3002 RMK A01 T03040179  RH  047%=      5-min Rain = 0
KWT1 251746Z 12009KT 31/18 A3002 RMK A01 T03050178  RH  047%=      5-min Rain = 0
KWT1 251747Z 12009KT 31/18 A3002 RMK A01 T03050178  RH  047%=      5-min Rain = 0
KWT1 251748Z 12006KT 30/18 A3002 RMK A01 T03040180  RH  047%=      5-min Rain = 0
KWT1 251749Z 13007KT 30/18 A3002 RMK A01 T03040177  RH  047%=      5-min Rain = 0
KWT1 251750Z 13004KT 30/18 A3002 RMK A01 T03030175  RH  046%=      5-min Rain = 0
KWT1 251751Z 14005KT 30/18 A3002 RMK A01 T03030176  RH  047%=      5-min Rain = 0
KWT1 251752Z 13006KT 30/18 A3002 RMK A01 T03030177  RH  047%=      5-min Rain = 0
KWT1 251753Z 15009KT 30/18 A3002 RMK A01 T03030179  RH  047%=      5-min Rain = 0
KWT1 251754Z 17007KT 31/18 A3002 RMK A01 T03050179  RH  047%=      5-min Rain = 0
KWT1 251755Z 16006KT 31/18 A3002 RMK A01 T03060178  RH  046%=      5-min Rain = 0
KWT1 251756Z 16007G12KT 31/18 A3002 RMK A01 T03060179  RH  047%=      5-min Rain = 0
KWT1 251757Z 16011KT 31/18 A3002 RMK A01 T03060178  RH  046%=      5-min Rain = 0
KWT1 251758Z 15009KT 30/18 A3002 RMK A01 T03030177  RH  047%=      5-min Rain = 0
KWT1 251759Z 14008KT 30/18 A3002 RMK A01 T03030181  RH  048%=      5-min Rain = 0
KWT1 251800Z 16007KT 31/18 A3002 RMK A01 T03050178  RH  047%=      5-min Rain = 0
KWT1 251801Z 14007KT 31/18 A3002 RMK A01 T03050178  RH  047%=      5-min Rain = 0
KWT1 251802Z 16010KT 31/18 A3002 RMK A01 T03050182  RH  048%=      5-min Rain = 0
KWT1 251803Z 16010KT 31/18 A3002 RMK A01 T03070179  RH  046%=      5-min Rain = 0
KWT1 251804Z 15009KT 31/18 A3002 RMK A01 T03060178  RH  046%=      5-min Rain = 0
KWT1 251805Z 15007KT 31/18 A3002 RMK A01 T03050177  RH  046%=      5-min Rain = 0
KWT1 251806Z 15009KT 31/18 A3002 RMK A01 T03060180  RH  047%=      5-min Rain = 0
KWT1 251807Z 16010KT 31/18 A3002 RMK A01 T03070181  RH  047%=      5-min Rain = 0
KWT1 251808Z 16008KT 31/18 A3002 RMK A01 T03080176  RH  045%=      5-min Rain = 0
KWT1 251809Z 16010KT 31/18 A3002 RMK A01 T03070180  RH  047%=      5-min Rain = 0
KWT1 251810Z 16010KT 31/18 A3002 RMK A01 T03070179  RH  046%=      5-min Rain = 0
KWT1 251811Z 16010KT 31/18 A3002 RMK A01 T03060175  RH  045%=      5-min Rain = 0
KWT1 251812Z 17006KT 30/18 A3002 RMK A01 T03030175  RH  046%=      5-min Rain = 0
KWT1 251813Z 18004KT 30/18 A3002 RMK A01 T03020180  RH  048%=      5-min Rain = 0
KWT1 251814Z 17006KT 30/18 A3002 RMK A01 T03040181  RH  048%=      5-min Rain = 0
KWT1 251815Z 15007KT 31/18 A3002 RMK A01 T03070181  RH  047%=      5-min Rain = 0
KWT1 251816Z 13012KT 31/18 A3002 RMK A01 T03100184  RH  047%=      5-min Rain = 0
KWT1 251817Z 13012KT 31/18 A3002 RMK A01 T03110180  RH  046%=      5-min Rain = 0
KWT1 251818Z 14008G13KT 31/18 A3002 RMK A01 T03090178  RH  046%=      5-min Rain = 0
KWT1 251819Z 14012KT 31/18 A3002 RMK A01 T03070179  RH  046%=      5-min Rain = 0
KWT1 251820Z 14012KT 31/18 A3002 RMK A01 T03070180  RH  046%=      5-min Rain = 0
KWT1 251821Z 14011KT 31/18 A3002 RMK A01 T03080177  RH  046%=      5-min Rain = 0
KWT1 251822Z 12008KT 31/18 A3002 RMK A01 T03060179  RH  047%=      5-min Rain = 0
KWT1 251823Z 13006KT 31/18 A3002 RMK A01 T03060179  RH  047%=      5-min Rain = 0
KWT1 251824Z 12006KT 31/18 A3002 RMK A01 T03060180  RH  047%=      5-min Rain = 0
KWT1 251825Z 14005KT 31/18 A3002 RMK A01 T03070184  RH  048%=      5-min Rain = 0
KWT1 251826Z 13009KT 31/19 A3002 RMK A01 T03110187  RH  048%=      5-min Rain = 0
KWT1 251827Z 14009KT 31/18 A3002 RMK A01 T03130180  RH  045%=      5-min Rain = 0
KWT1 251828Z 15006KT 31/18 A3002 RMK A01 T03100176  RH  045%=      5-min Rain = 0
KWT1 251829Z 16008KT 31/18 A3002 RMK A01 T03080180  RH  046%=      5-min Rain = 0
KWT1 251830Z 17011KT 31/18 A3002 RMK A01 T03080180  RH  046%=      5-min Rain = 0
KWT1 251831Z 18010KT 31/18 A3002 RMK A01 T03070179  RH  046%=      5-min Rain = 0
KWT1 251832Z 17009KT 31/18 A3002 RMK A01 T03060183  RH  048%=      5-min Rain = 0
KWT1 251833Z 16009KT 31/19 A3002 RMK A01 T03100187  RH  048%=      5-min Rain = 0
KWT1 251834Z 17012KT 31/18 A3002 RMK A01 T03130182  RH  046%=      5-min Rain = 0
KWT1 251835Z 19009KT 31/18 A3002 RMK A01 T03090177  RH  045%=      5-min Rain = 0
KWT1 251836Z 18006KT 31/18 A3002 RMK A01 T03080179  RH  046%=      5-min Rain = 0
KWT1 251837Z 17008KT 31/18 A3002 RMK A01 T03070179  RH  046%=      5-min Rain = 0
KWT1 251838Z 18008KT 31/18 A3002 RMK A01 T03060179  RH  047%=      5-min Rain = 0
KWT1 251839Z 17005KT 31/18 A3002 RMK A01 T03070178  RH  046%=      5-min Rain = 0
KWT1 251840Z 15009KT 31/18 A3002 RMK A01 T03080181  RH  047%=      5-min Rain = 0
KWT1 251841Z 15007KT 31/18 A3002 RMK A01 T03090178  RH  045%=      5-min Rain = 0
KWT1 251842Z 16005KT 31/18 A3002 RMK A01 T03080177  RH  046%=      5-min Rain = 0
KWT1 251843Z 14008G13KT 31/18 A3001 RMK A01 T03080183  RH  047%=      5-min Rain = 0
KWT1 251844Z 13011KT 31/18 A3002 RMK A01 T03100180  RH  046%=      5-min Rain = 0
KWT1 251845Z 11010KT 31/18 A3002 RMK A01 T03110178  RH  045%=      5-min Rain = 0
KWT1 251846Z 14010KT 31/18 A3002 RMK A01 T03090182  RH  046%=      5-min Rain = 0
KWT1 251847Z 14012KT 31/18 A3002 RMK A01 T03100181  RH  046%=      5-min Rain = 0
KWT1 251848Z 14009KT 31/18 A3002 RMK A01 T03110178  RH  045%=      5-min Rain = 0
KWT1 251849Z 17009KT 31/18 A3001 RMK A01 T03110179  RH  045%=      5-min Rain = 0
KWT1 251850Z 15013G18KT 31/18 A3001 RMK A01 T03110179  RH  045%=      5-min Rain = 0
KWT1 251851Z 16014G19KT 31/18 A3001 RMK A01 T03120178  RH  045%=      5-min Rain = 0
KWT1 251852Z 16011KT 31/17 A3001 RMK A01 T03100174  RH  044%=      5-min Rain = 0
KWT1 251853Z 14009KT 31/18 A3001 RMK A01 T03080179  RH  046%=      5-min Rain = 0
KWT1 251854Z 15009KT 31/18 A3001 RMK A01 T03110181  RH  046%=      5-min Rain = 0
KWT1 251855Z 16008KT 31/18 A3001 RMK A01 T03130180  RH  045%=      5-min Rain = 0
KWT1 251856Z 16008KT 32/18 A3001 RMK A01 T03150182  RH  045%=      5-min Rain = 0
KWT1 251857Z 15009KT 32/18 A3001 RMK A01 T03160177  RH  043%=      5-min Rain = 0
KWT1 251858Z 14012KT 31/18 A3001 RMK A01 T03140178  RH  044%=      5-min Rain = 0
KWT1 251859Z 14013KT 31/18 A3001 RMK A01 T03120176  RH  044%=      5-min Rain = 0
KWT1 251900Z 13011KT 31/17 A3001 RMK A01 T03100174  RH  044%=      5-min Rain = 0
KWT1 251901Z 14010KT 31/18 A3001 RMK A01 T03080178  RH  046%=      5-min Rain = 0
KWT1 251902Z 14010KT 31/18 A3001 RMK A01 T03100176  RH  045%=      5-min Rain = 0
KWT1 251903Z 10008KT 31/18 A3001 RMK A01 T03100179  RH  045%=      5-min Rain = 0
KWT1 251904Z 11007KT 31/18 A3001 RMK A01 T03110181  RH  046%=      5-min Rain = 0
KWT1 251905Z 11006KT 31/18 A3001 RMK A01 T03110179  RH  045%=      5-min Rain = 0
KWT1 251906Z 12005KT 31/18 A3001 RMK A01 T03120177  RH  045%=      5-min Rain = 0
KWT1 251907Z 14009KT 31/18 A3001 RMK A01 T03120180  RH  045%=      5-min Rain = 0
KWT1 251908Z 13011KT 31/18 A3001 RMK A01 T03120177  RH  045%=      5-min Rain = 0
KWT1 251909Z 13008KT 31/18 A3001 RMK A01 T03100177  RH  045%=      5-min Rain = 0
KWT1 251910Z 12011KT 31/18 A3001 RMK A01 T03100181  RH  046%=      5-min Rain = 0
KWT1 251911Z 13008KT 31/18 A3001 RMK A01 T03100179  RH  045%=      5-min Rain = 0
KWT1 251912Z 12007KT 31/18 A3001 RMK A01 T03110182  RH  046%=      5-min Rain = 0
KWT1 251913Z 11008KT 31/18 A3001 RMK A01 T03120178  RH  045%=      5-min Rain = 0
KWT1 251914Z 10008KT 31/18 A3001 RMK A01 T03120183  RH  046%=      5-min Rain = 0
KWT1 251915Z 11007G12KT 31/18 A3001 RMK A01 T03120182  RH  046%=      5-min Rain = 0
KWT1 251916Z 09007KT 31/18 A3001 RMK A01 T03120183  RH  046%=      5-min Rain = 0
KWT1 251917Z 11006KT 31/18 A3001 RMK A01 T03120181  RH  045%=      5-min Rain = 0
KWT1 251918Z 13009KT 31/18 A3001 RMK A01 T03110180  RH  046%=      5-min Rain = 0
KWT1 251919Z 12009KT 31/18 A3001 RMK A01 T03130181  RH  045%=      5-min Rain = 0
KWT1 251920Z 13008KT 31/18 A3001 RMK A01 T03130180  RH  045%=      5-min Rain = 0
KWT1 251921Z 14006KT 31/18 A3001 RMK A01 T03140182  RH  046%=      5-min Rain = 0
KWT1 251922Z 16010KT 32/18 A3001 RMK A01 T03160181  RH  045%=      5-min Rain = 0
KWT1 251923Z 16008KT 32/18 A30 RMK A01 T03160179  RH  044%=      5-min Rain = 0
KWT1 251924Z 18007KT 32/18 A30 RMK A01 T03150179  RH  045%=      5-min Rain = 0
KWT1 251925Z 17009KT 31/18 A30 RMK A01 T03140178  RH  044%=      5-min Rain = 0
KWT1 251926Z 15008KT 31/18 A3001 RMK A01 T03120177  RH  044%=      5-min Rain = 0
KWT1 251927Z 15007KT 31/18 A3001 RMK A01 T03110177  RH  045%=      5-min Rain = 0
KWT1 251928Z 17006KT 31/17 A3001 RMK A01 T03110172  RH  043%=      5-min Rain = 0
KWT1 251929Z 16007G12KT 31/17 A30 RMK A01 T03110173  RH  043%=      5-min Rain = 0
KWT1 251930Z 15009KT 31/18 A30 RMK A01 T03110175  RH  044%=      5-min Rain = 0
KWT1 251931Z 14009KT 31/17 A30 RMK A01 T03110173  RH  044%=      5-min Rain = 0
KWT1 251932Z 15007KT 31/17 A3001 RMK A01 T03120173  RH  044%=      5-min Rain = 0
KWT1 251933Z 14006KT 31/18 A30 RMK A01 T03130177  RH  044%=      5-min Rain = 0
KWT1 251934Z 13008KT 32/18 A30 RMK A01 T03160184  RH  045%=      5-min Rain = 0
KWT1 251935Z 13013KT 32/18 A30 RMK A01 T03190184  RH  045%=      5-min Rain = 0
KWT1 251936Z 13011KT 32/18 A30 RMK A01 T03200182  RH  044%=      5-min Rain = 0
KWT1 251937Z 14009KT 32/18 A30 RMK A01 T03190184  RH  045%=      5-min Rain = 0
KWT1 251938Z 13012KT 32/19 A30 RMK A01 T03210185  RH  044%=      5-min Rain = 0
KWT1 251939Z 11008KT 32/18 A30 RMK A01 T03190179  RH  044%=      5-min Rain = 0
KWT1 251940Z 11009KT 32/18 A30 RMK A01 T03160182  RH  045%=      5-min Rain = 0
KWT1 251941Z 12007KT 32/19 A30 RMK A01 T03160185  RH  046%=      5-min Rain = 0
KWT1 251942Z 14010KT 32/18 A30 RMK A01 T03170179  RH  044%=      5-min Rain = 0
KWT1 251943Z 14009KT 32/18 A30 RMK A01 T03160180  RH  044%=      5-min Rain = 0
KWT1 251944Z 14009KT 32/18 A30 RMK A01 T03160179  RH  044%=      5-min Rain = 0
KWT1 251945Z 16008KT 32/18 A30 RMK A01 T03160177  RH  044%=      5-min Rain = 0
KWT1 251946Z 16010KT 31/18 A30 RMK A01 T03140176  RH  044%=      5-min Rain = 0
KWT1 251947Z 16013KT 31/18 A30 RMK A01 T03140176  RH  044%=      5-min Rain = 0
KWT1 251948Z 15011KT 32/18 A30 RMK A01 T03150177  RH  044%=      5-min Rain = 0
KWT1 251949Z 14010KT 32/18 A30 RMK A01 T03150181  RH  045%=      5-min Rain = 0
KWT1 251950Z 14009KT 32/18 A30 RMK A01 T03170181  RH  044%=      5-min Rain = 0
KWT1 251951Z 15010KT 32/18 A30 RMK A01 T03190179  RH  043%=      5-min Rain = 0
KWT1 251952Z 16010KT 32/18 A30 RMK A01 T03170175  RH  043%=      5-min Rain = 0
KWT1 251953Z 16007KT 32/17 A30 RMK A01 T03150174  RH  043%=      5-min Rain = 0
KWT1 251954Z 17008KT 31/18 A30 RMK A01 T03140176  RH  044%=      5-min Rain = 0
KWT1 251955Z 15008KT 32/18 A30 RMK A01 T03160176  RH  043%=      5-min Rain = 0
KWT1 251956Z 14010KT 32/18 A30 RMK A01 T03180178  RH  043%=      5-min Rain = 0
KWT1 251957Z 13009KT 32/18 A30 RMK A01 T03190176  RH  043%=      5-min Rain = 0
KWT1 251958Z 13010KT 32/18 A30 RMK A01 T03180176  RH  043%=      5-min Rain = 0
KWT1 251959Z 12008KT 32/18 A30 RMK A01 T03170179  RH  044%=      5-min Rain = 0
KWT1 252000Z 12007KT 32/18 A30 RMK A01 T03170179  RH  044%=      5-min Rain = 0
KWT1 252001Z 13008KT 32/18 A30 RMK A01 T03160180  RH  044%=      5-min Rain = 0
KWT1 252002Z 13010KT 32/18 A30 RMK A01 T03170179  RH  044%=      5-min Rain = 0
KWT1 252003Z 14012KT 32/18 A30 RMK A01 T03170180  RH  044%=      5-min Rain = 0
KWT1 252004Z 13009KT 32/18 A30 RMK A01 T03180181  RH  044%=      5-min Rain = 0
KWT1 252005Z 11008KT 32/18 A30 RMK A01 T03180182  RH  044%=      5-min Rain = 0
KWT1 252006Z 13008KT 32/18 A30 RMK A01 T03190184  RH  045%=      5-min Rain = 0
KWT1 252007Z 15008G13KT 32/19 A2999 RMK A01 T03210188  RH  045%=      5-min Rain = 0
KWT1 252008Z 16010KT 32/18 A2999 RMK A01 T03230183  RH  043%=      5-min Rain = 0
KWT1 252009Z 16010KT 32/18 A2999 RMK A01 T03220180  RH  043%=      5-min Rain = 0
KWT1 252010Z 16009KT 32/18 A2999 RMK A01 T03220180  RH  043%=      5-min Rain = 0
KWT1 252011Z 17009KT 32/18 A2999 RMK A01 T03210176  RH  042%=      5-min Rain = 0
KWT1 252012Z 17008KT 32/18 A2999 RMK A01 T03190179  RH  043%=      5-min Rain = 0
KWT1 252013Z 16008KT 32/18 A2999 RMK A01 T03180179  RH  043%=      5-min Rain = 0
KWT1 252014Z 16011KT 32/18 A2999 RMK A01 T03190181  RH  044%=      5-min Rain = 0
KWT1 252015Z 16010KT 32/18 A2999 RMK A01 T03200183  RH  044%=      5-min Rain = 0
KWT1 252016Z 16010KT 32/18 A2999 RMK A01 T03220181  RH  043%=      5-min Rain = 0
KWT1 252017Z 17008KT 32/18 A2999 RMK A01 T03210180  RH  043%=      5-min Rain = 0
KWT1 252018Z 15007KT 32/18 A2999 RMK A01 T03180180  RH  044%=      5-min Rain = 0
KWT1 252019Z 12006KT 32/19 A2999 RMK A01 T03190185  RH  045%=      5-min Rain = 0
KWT1 252020Z 12005KT 32/19 A2999 RMK A01 T03210185  RH  044%=      5-min Rain = 0
KWT1 252021Z 13007KT 32/19 A2999 RMK A01 T03220185  RH  044%=      5-min Rain = 0
KWT1 252022Z 16012KT 32/18 A2999 RMK A01 T03220182  RH  043%=      5-min Rain = 0
KWT1 252023Z 17011KT 32/18 A2999 RMK A01 T03200180  RH  043%=      5-min Rain = 0
KWT1 252024Z 17011KT 32/18 A2999 RMK A01 T03180178  RH  043%=      5-min Rain = 0
KWT1 252025Z 17010KT 32/18 A2999 RMK A01 T03170180  RH  044%=      5-min Rain = 0
KWT1 252026Z 16011KT 32/18 A2999 RMK A01 T03180182  RH  044%=      5-min Rain = 0
KWT1 252027Z 14006KT 32/18 A2999 RMK A01 T03180179  RH  043%=      5-min Rain = 0
KWT1 252028Z 18007KT 32/18 A2999 RMK A01 T03170183  RH  045%=      5-min Rain = 0
KWT1 252029Z 18008KT 32/18 A2999 RMK A01 T03180176  RH  043%=      5-min Rain = 0
KWT1 252030Z 16007KT 32/18 A2999 RMK A01 T03160180  RH  044%=      5-min Rain = 0
KWT1 252031Z 16008KT 32/18 A2999 RMK A01 T03180184  RH  045%=      5-min Rain = 0
KWT1 252032Z 16009KT 32/18 A2999 RMK A01 T03220181  RH  043%=      5-min Rain = 0
KWT1 252033Z 17007KT 32/18 A2999 RMK A01 T03210178  RH  042%=      5-min Rain = 0
KWT1 252034Z 17009KT 32/18 A2999 RMK A01 T03190180  RH  044%=      5-min Rain = 0
KWT1 252035Z 18007KT 32/18 A2999 RMK A01 T03200180  RH  043%=      5-min Rain = 0
KWT1 252036Z 17008KT 32/18 A2999 RMK A01 T03200182  RH  044%=      5-min Rain = 0
KWT1 252037Z 18008KT 32/18 A2999 RMK A01 T03220178  RH  042%=      5-min Rain = 0
KWT1 252038Z 17008KT 32/18 A2999 RMK A01 T03220181  RH  043%=      5-min Rain = 0
KWT1 252039Z 18007KT 32/18 A2998 RMK A01 T03210177  RH  042%=      5-min Rain = 0
KWT1 252040Z 18009KT 32/18 A2998 RMK A01 T03210179  RH  043%=      5-min Rain = 0
KWT1 252041Z 19007KT 32/18 A2998 RMK A01 T03190175  RH  042%=      5-min Rain = 0
KWT1 252042Z 18006KT 32/18 A2998 RMK A01 T03170178  RH  044%=      5-min Rain = 0
KWT1 252043Z 16010KT 32/18 A2998 RMK A01 T03180179  RH  044%=      5-min Rain = 0
KWT1 252044Z 16008KT 32/18 A2998 RMK A01 T03180180  RH  044%=      5-min Rain = 0
KWT1 252045Z 18006KT 32/18 A2998 RMK A01 T03190178  RH  043%=      5-min Rain = 0
KWT1 252046Z 17009KT 32/18 A2998 RMK A01 T03180179  RH  044%=      5-min Rain = 0
KWT1 252047Z 14010KT 32/18 A2998 RMK A01 T03180179  RH  044%=      5-min Rain = 0
KWT1 252048Z 13008KT 32/18 A2998 RMK A01 T03200178  RH  043%=      5-min Rain = 0
KWT1 252049Z 13007KT 32/18 A2998 RMK A01 T03200182  RH  044%=      5-min Rain = 0
KWT1 252050Z 14008KT 32/18 A2998 RMK A01 T03220184  RH  044%=      5-min Rain = 0
KWT1 252051Z 14009KT 32/18 A2998 RMK A01 T03230182  RH  043%=      5-min Rain = 0
KWT1 252052Z 14010G15KT 32/19 A2998 RMK A01 T03240187  RH  044%=      5-min Rain = 0
KWT1 252053Z 17010KT 33/19 A2998 RMK A01 T03260185  RH  043%=      5-min Rain = 0
KWT1 252054Z 17008KT 33/18 A2998 RMK A01 T03260183  RH  043%=      5-min Rain = 0
KWT1 252055Z 17007KT 32/18 A2998 RMK A01 T03240182  RH  043%=      5-min Rain = 0
KWT1 252056Z 16006KT 32/19 A2998 RMK A01 T03240185  RH  044%=      5-min Rain = 0
KWT1 252057Z 16008KT 33/19 A2998 RMK A01 T03270185  RH  043%=      5-min Rain = 0
KWT1 252058Z 16008KT 33/19 A2998 RMK A01 T03270187  RH  044%=      5-min Rain = 0
KWT1 252059Z 14011KT 33/18 A2998 RMK A01 T03290183  RH  042%=      5-min Rain = 0
KWT1 252100Z 17010KT 33/18 A2998 RMK A01 T03280182  RH  042%=      5-min Rain = 0
KWT1 252101Z 16009KT 33/18 A2998 RMK A01 T03260178  RH  041%=      5-min Rain = 0
KWT1 252102Z 16008KT 32/18 A2998 RMK A01 T03240178  RH  042%=      5-min Rain = 0
KWT1 252103Z 16008KT 32/18 A2998 RMK A01 T03240180  RH  042%=      5-min Rain = 0
KWT1 252104Z 15010KT 33/18 A2998 RMK A01 T03250181  RH  042%=      5-min Rain = 0
KWT1 252105Z 16006KT 33/18 A2998 RMK A01 T03270180  RH  042%=      5-min Rain = 0
KWT1 252106Z 17006KT 33/18 A2998 RMK A01 T03290179  RH  041%=      5-min Rain = 0
KWT1 252107Z 15010KT 33/18 A2998 RMK A01 T03290176  RH  040%=      5-min Rain = 0
KWT1 252108Z 16007KT 33/17 A2998 RMK A01 T03250173  RH  040%=      5-min Rain = 0
KWT1 252109Z 14006KT 32/17 A2998 RMK A01 T03220173  RH  041%=      5-min Rain = 0
KWT1 252110Z 14008KT 32/18 A2998 RMK A01 T03210177  RH  042%=      5-min Rain = 0
KWT1 252111Z 16010KT 32/18 A2998 RMK A01 T03240182  RH  043%=      5-min Rain = 0
KWT1 252112Z 16009KT 33/18 A2998 RMK A01 T03260181  RH  042%=      5-min Rain = 0
KWT1 252113Z 18007KT 33/18 A2998 RMK A01 T03260180  RH  042%=      5-min Rain = 0
KWT1 252114Z 16008KT 33/18 A2998 RMK A01 T03260180  RH  042%=      5-min Rain = 0
KWT1 252115Z 16009KT 33/18 A2998 RMK A01 T03260179  RH  042%=      5-min Rain = 0
KWT1 252116Z 16013KT 33/18 A2998 RMK A01 T03250179  RH  042%=      5-min Rain = 0
KWT1 252117Z 15010KT 32/18 A2998 RMK A01 T03240178  RH  042%=      5-min Rain = 0
KWT1 252118Z 16010KT 32/18 A2998 RMK A01 T03240177  RH  042%=      5-min Rain = 0
KWT1 252119Z 16011KT 33/18 A2997 RMK A01 T03250178  RH  042%=      5-min Rain = 0
KWT1 252120Z 16009KT 33/18 A2997 RMK A01 T03250177  RH  041%=      5-min Rain = 0
KWT1 252121Z 17006KT 32/18 A2997 RMK A01 T03240179  RH  042%=      5-min Rain = 0
KWT1 252122Z 15004KT 33/18 A2997 RMK A01 T03250178  RH  042%=      5-min Rain = 0
KWT1 252123Z 14008KT 33/18 A2997 RMK A01 T03260184  RH  043%=      5-min Rain = 0
KWT1 252124Z 13012KT 33/18 A2997 RMK A01 T03280180  RH  041%=      5-min Rain = 0
KWT1 252125Z 14010KT 33/18 A2997 RMK A01 T03280182  RH  042%=      5-min Rain = 0
KWT1 252126Z 15010KT 33/18 A2997 RMK A01 T03270179  RH  041%=      5-min Rain = 0
KWT1 252127Z 16009KT 33/18 A2997 RMK A01 T03270179  RH  041%=      5-min Rain = 0
KWT1 252128Z 14008KT 33/18 A2997 RMK A01 T03260182  RH  042%=      5-min Rain = 0
KWT1 252129Z 15009KT 33/18 A2997 RMK A01 T03270180  RH  042%=      5-min Rain = 0
KWT1 252130Z 14009KT 33/18 A2997 RMK A01 T03260180  RH  042%=      5-min Rain = 0
KWT1 252131Z 16010KT 33/18 A2997 RMK A01 T03270179  RH  041%=      5-min Rain = 0
KWT1 252132Z 17009KT 33/18 A2997 RMK A01 T03270175  RH  040%=      5-min Rain = 0
KWT1 252133Z 16011KT 33/18 A2997 RMK A01 T03270175  RH  040%=      5-min Rain = 0
KWT1 252134Z 15009KT 33/18 A2997 RMK A01 T03260175  RH  041%=      5-min Rain = 0
KWT1 252135Z 14009KT 33/17 A2997 RMK A01 T03260172  RH  040%=      5-min Rain = 0
KWT1 252136Z 13011KT 33/18 A2997 RMK A01 T03260178  RH  042%=      5-min Rain = 0
KWT1 252137Z 13011KT 33/18 A2997 RMK A01 T03260176  RH  041%=      5-min Rain = 0
KWT1 252138Z 14008KT 33/18 A2997 RMK A01 T03260179  RH  042%=      5-min Rain = 0
KWT1 252139Z 14009KT 33/18 A2997 RMK A01 T03260178  RH  042%=      5-min Rain = 0
KWT1 252140Z 13010KT 33/18 A2997 RMK A01 T03270178  RH  041%=      5-min Rain = 0
KWT1 252141Z 12009KT 33/18 A2997 RMK A01 T03270179  RH  041%=      5-min Rain = 0
KWT1 252142Z 13009KT 33/18 A2997 RMK A01 T03280179  RH  041%=      5-min Rain = 0
KWT1 252143Z 15008KT 33/18 A2997 RMK A01 T03290179  RH  041%=      5-min Rain = 0
KWT1 252144Z 15010KT 33/18 A2997 RMK A01 T03300177  RH  040%=      5-min Rain = 0
KWT1 252145Z 13008KT 33/18 A2997 RMK A01 T03300176  RH  040%=      5-min Rain = 0
KWT1 252146Z 13008KT 33/18 A2997 RMK A01 T03290175  RH  040%=      5-min Rain = 0
KWT1 252147Z 14005KT 33/18 A2997 RMK A01 T03280176  RH  040%=      5-min Rain = 0
KWT1 252148Z 15007KT 33/18 A2997 RMK A01 T03290180  RH  041%=      5-min Rain = 0
KWT1 252149Z 18009KT 33/18 A2996 RMK A01 T03300175  RH  040%=      5-min Rain = 0
KWT1 252150Z 17007KT 33/18 A2996 RMK A01 T03280175  RH  040%=      5-min Rain = 0
KWT1 252151Z 16009KT 33/18 A2996 RMK A01 T03270178  RH  041%=      5-min Rain = 0
KWT1 252152Z 15009KT 33/18 A2996 RMK A01 T03270177  RH  041%=      5-min Rain = 0
KWT1 252153Z 17008KT 33/18 A2996 RMK A01 T03260180  RH  042%=      5-min Rain = 0
KWT1 252154Z 17010KT 33/18 A2996 RMK A01 T03270179  RH  041%=      5-min Rain = 0
KWT1 252155Z 16012KT 33/18 A2996 RMK A01 T03260179  RH  042%=      5-min Rain = 0
KWT1 252156Z 17010KT 33/17 A2996 RMK A01 T03260174  RH  040%=      5-min Rain = 0
KWT1 252157Z 16011KT 32/18 A2996 RMK A01 T03240175  RH  041%=      5-min Rain = 0
KWT1 252158Z 16009KT 32/18 A2996 RMK A01 T03240176  RH  041%=      5-min Rain = 0
KWT1 252159Z 16008KT 33/18 A2996 RMK A01 T03260179  RH  042%=      5-min Rain = 0
KWT1 252200Z 16008KT 33/18 A2996 RMK A01 T03260179  RH  042%=      5-min Rain = 0
KWT1 252201Z 15009KT 33/18 A2996 RMK A01 T03280182  RH  042%=      5-min Rain = 0
KWT1 252202Z 14011KT 33/18 A2996 RMK A01 T03290178  RH  041%=      5-min Rain = 0
KWT1 252203Z 15012KT 33/18 A2996 RMK A01 T03280175  RH  040%=      5-min Rain = 0
KWT1 252204Z 14008KT 33/18 A2996 RMK A01 T03270176  RH  041%=      5-min Rain = 0
KWT1 252205Z 14008KT 33/18 A2996 RMK A01 T03260175  RH  041%=      5-min Rain = 0
KWT1 252206Z 15012KT 33/18 A2996 RMK A01 T03250176  RH  041%=      5-min Rain = 0
KWT1 252207Z 14011KT 33/18 A2996 RMK A01 T03250175  RH  041%=      5-min Rain = 0
KWT1 252208Z 14010KT 33/18 A2996 RMK A01 T03250178  RH  041%=      5-min Rain = 0
KWT1 252209Z 14009KT 33/18 A2996 RMK A01 T03260175  RH  041%=      5-min Rain = 0
KWT1 252210Z 15012KT 33/18 A2996 RMK A01 T03250177  RH  041%=      5-min Rain = 0
KWT1 252211Z 15013KT 32/18 A2996 RMK A01 T03240177  RH  042%=      5-min Rain = 0
KWT1 252212Z 14009KT 32/17 A2996 RMK A01 T03240174  RH  041%=      5-min Rain = 0
KWT1 252213Z 15008KT 33/18 A2996 RMK A01 T03250177  RH  041%=      5-min Rain = 0
KWT1 252214Z 13009KT 33/18 A2996 RMK A01 T03250177  RH  041%=      5-min Rain = 0
KWT1 252215Z 14011KT 33/18 A2996 RMK A01 T03260177  RH  041%=      5-min Rain = 0
KWT1 252216Z 14010KT 33/18 A2996 RMK A01 T03260179  RH  042%=      5-min Rain = 0
KWT1 252217Z 14011KT 33/18 A2996 RMK A01 T03280179  RH  041%=      5-min Rain = 0
KWT1 252218Z 14011KT 33/18 A2996 RMK A01 T03270175  RH  040%=      5-min Rain = 0
KWT1 252219Z 13008KT 33/18 A2996 RMK A01 T03260175  RH  040%=      5-min Rain = 0
KWT1 252220Z 13006KT 33/18 A2996 RMK A01 T03260177  RH  041%=      5-min Rain = 0
KWT1 252221Z 14010KT 33/18 A2996 RMK A01 T03260178  RH  041%=      5-min Rain = 0
KWT1 252222Z 14009KT 33/18 A2996 RMK A01 T03270178  RH  041%=      5-min Rain = 0
KWT1 252223Z 15010KT 33/18 A2996 RMK A01 T03290178  RH  041%=      5-min Rain = 0
KWT1 252224Z 15009KT 33/17 A2996 RMK A01 T03300174  RH  039%=      5-min Rain = 0
KWT1 252225Z 15009KT 33/18 A2996 RMK A01 T03290176  RH  040%=      5-min Rain = 0
KWT1 252226Z 17010KT 33/18 A2996 RMK A01 T03290178  RH  041%=      5-min Rain = 0
KWT1 252227Z 17011KT 33/17 A2996 RMK A01 T03280173  RH  040%=      5-min Rain = 0
KWT1 252228Z 15009KT 33/18 A2996 RMK A01 T03270176  RH  041%=      5-min Rain = 0
KWT1 252229Z 15012KT 33/18 A2996 RMK A01 T03270176  RH  041%=      5-min Rain = 0
KWT1 252230Z 15011KT 33/18 A2996 RMK A01 T03280177  RH  041%=      5-min Rain = 0
KWT1 252231Z 16010KT 33/18 A2996 RMK A01 T03280178  RH  041%=      5-min Rain = 0
KWT1 252232Z 16010KT 33/18 A2996 RMK A01 T03280180  RH  041%=      5-min Rain = 0
KWT1 252233Z 17012KT 33/18 A2996 RMK A01 T03290178  RH  041%=      5-min Rain = 0
KWT1 252234Z 17010KT 33/17 A2995 RMK A01 T03260171  RH  040%=      5-min Rain = 0
KWT1 252235Z 18008KT 32/17 A2995 RMK A01 T03230172  RH  041%=      5-min Rain = 0
KWT1 252236Z 17008KT 32/18 A2996 RMK A01 T03230178  RH  042%=      5-min Rain = 0
KWT1 252237Z 15011KT 33/18 A2996 RMK A01 T03260178  RH  041%=      5-min Rain = 0
KWT1 252238Z 14013KT 33/18 A2996 RMK A01 T03270176  RH  040%=      5-min Rain = 0
KWT1 252239Z 15011KT 33/17 A2995 RMK A01 T03260174  RH  040%=      5-min Rain = 0
KWT1 252240Z 16012KT 33/18 A2995 RMK A01 T03260176  RH  041%=      5-min Rain = 0
KWT1 252241Z 17012KT 32/17 A2995 RMK A01 T03240174  RH  041%=      5-min Rain = 0
KWT1 252242Z 16010KT 32/17 A2995 RMK A01 T03230174  RH  041%=      5-min Rain = 0
KWT1 252243Z 16010KT 32/18 A2995 RMK A01 T03220176  RH  042%=      5-min Rain = 0
KWT1 252244Z 15013KT 32/18 A2995 RMK A01 T03230177  RH  042%=      5-min Rain = 0
KWT1 252245Z 14013KT 33/18 A2995 RMK A01 T03250176  RH  041%=      5-min Rain = 0
KWT1 252246Z 14012KT 33/18 A2995 RMK A01 T03250176  RH  041%=      5-min Rain = 0
KWT1 252247Z 15010KT 32/18 A2995 RMK A01 T03240175  RH  041%=      5-min Rain = 0
KWT1 252248Z 14009KT 32/18 A2995 RMK A01 T03240179  RH  042%=      5-min Rain = 0
KWT1 252249Z 13011KT 33/18 A2995 RMK A01 T03250179  RH  042%=      5-min Rain = 0
KWT1 252250Z 13011KT 33/18 A2995 RMK A01 T03250176  RH  041%=      5-min Rain = 0
KWT1 252251Z 13010KT 33/18 A2995 RMK A01 T03250179  RH  042%=      5-min Rain = 0
KWT1 252252Z 12009KT 33/18 A2995 RMK A01 T03250181  RH  042%=      5-min Rain = 0
KWT1 252253Z 13011KT 33/18 A2995 RMK A01 T03250180  RH  042%=      5-min Rain = 0
KWT1 252254Z 14011KT 33/18 A2995 RMK A01 T03250179  RH  042%=      5-min Rain = 0
KWT1 252255Z 15013KT 33/18 A2995 RMK A01 T03250177  RH  041%=      5-min Rain = 0
KWT1 252256Z 16011KT 32/17 A2995 RMK A01 T03240170  RH  040%=      5-min Rain = 0
KWT1 252257Z 16011KT 32/17 A2995 RMK A01 T03240173  RH  041%=      5-min Rain = 0
KWT1 252258Z 15012KT 32/17 A2995 RMK A01 T03240170  RH  040%=      5-min Rain = 0
KWT1 252259Z 15014KT 32/17 A2995 RMK A01 T03240170  RH  040%=      5-min Rain = 0
KWT1 252300Z 16013KT 32/17 A2995 RMK A01 T03240168  RH  039%=      5-min Rain = 0
KWT1 252301Z 16013KT 32/17 A2995 RMK A01 T03230170  RH  040%=      5-min Rain = 0
KWT1 252302Z 16013KT 32/17 A2995 RMK A01 T03220172  RH  041%=      5-min Rain = 0
KWT1 252303Z 16011KT 32/17 A2995 RMK A01 T03230173  RH  041%=      5-min Rain = 0
KWT1 252304Z 15011KT 32/18 A2995 RMK A01 T03220175  RH  042%=      5-min Rain = 0
KWT1 252305Z 16012KT 32/18 A2995 RMK A01 T03220176  RH  042%=      5-min Rain = 0
KWT1 252306Z 15010KT 32/17 A2995 RMK A01 T03230173  RH  041%=      5-min Rain = 0
KWT1 252307Z 15012KT 32/18 A2995 RMK A01 T03230177  RH  042%=      5-min Rain = 0
KWT1 252308Z 14014KT 32/17 A2995 RMK A01 T03240173  RH  041%=      5-min Rain = 0
KWT1 252309Z 15012KT 32/17 A2995 RMK A01 T03240172  RH  040%=      5-min Rain = 0
KWT1 252310Z 15012KT 32/17 A2995 RMK A01 T03240172  RH  040%=      5-min Rain = 0
KWT1 252311Z 16011KT 32/17 A2995 RMK A01 T03240173  RH  041%=      5-min Rain = 0
KWT1 252312Z 16009KT 32/17 A2995 RMK A01 T03230172  RH  041%=      5-min Rain = 0
KWT1 252313Z 16009KT 32/18 A2995 RMK A01 T03240175  RH  041%=      5-min Rain = 0
KWT1 252314Z 16011KT 32/17 A2995 RMK A01 T03240173  RH  040%=      5-min Rain = 0
KWT1 252315Z 15011KT 32/18 A2995 RMK A01 T03240178  RH  042%=      5-min Rain = 0
KWT1 252316Z 15013KT 33/18 A2995 RMK A01 T03250178  RH  042%=      5-min Rain = 0
KWT1 252317Z 15012KT 32/18 A2995 RMK A01 T03240177  RH  042%=      5-min Rain = 0
KWT1 252318Z 15012KT 32/18 A2995 RMK A01 T03240178  RH  042%=      5-min Rain = 0
KWT1 252319Z 14013G19KT 32/18 A2995 RMK A01 T03240177  RH  042%=      5-min Rain = 0
KWT1 252320Z 14016KT 32/17 A2995 RMK A01 T03240174  RH  041%=      5-min Rain = 0
KWT1 252321Z 14013KT 32/17 A2995 RMK A01 T03220174  RH  041%=      5-min Rain = 0
KWT1 252322Z 16010KT 32/18 A2995 RMK A01 T03220176  RH  042%=      5-min Rain = 0
KWT1 252323Z 16012KT 32/18 A2995 RMK A01 T03230176  RH  042%=      5-min Rain = 0
KWT1 252324Z 16012KT 32/17 A2995 RMK A01 T03230174  RH  041%=      5-min Rain = 0
KWT1 252325Z 15013KT 32/18 A2995 RMK A01 T03230176  RH  041%=      5-min Rain = 0
KWT1 252326Z 17011KT 32/18 A2995 RMK A01 T03230175  RH  041%=      5-min Rain = 0
KWT1 252327Z 17012KT 32/17 A2995 RMK A01 T03220174  RH  041%=      5-min Rain = 0
KWT1 252328Z 17013G19KT 32/18 A2994 RMK A01 T03220175  RH  042%=      5-min Rain = 0
KWT1 252329Z 16017KT 32/17 A2994 RMK A01 T03210173  RH  041%=      5-min Rain = 0
KWT1 252330Z 15015KT 32/17 A2995 RMK A01 T03200170  RH  041%=      5-min Rain = 0
KWT1 252331Z 16013KT 32/17 A2995 RMK A01 T03200172  RH  041%=      5-min Rain = 0
KWT1 252332Z 16013KT 32/17 A2994 RMK A01 T03210172  RH  041%=      5-min Rain = 0
KWT1 252333Z 16012KT 32/17 A2994 RMK A01 T03220173  RH  041%=      5-min Rain = 0
KWT1 252334Z 16011KT 32/17 A2994 RMK A01 T03210174  RH  041%=      5-min Rain = 0
KWT1 252335Z 15011KT 32/17 A2994 RMK A01 T03210173  RH  041%=      5-min Rain = 0
KWT1 252336Z 15015KT 32/17 A2994 RMK A01 T03210170  RH  040%=      5-min Rain = 0
KWT1 252337Z 16013KT 32/17 A2994 RMK A01 T03220167  RH  040%=      5-min Rain = 0
KWT1 252338Z 15013KT 32/17 A2994 RMK A01 T03210167  RH  040%=      5-min Rain = 0
KWT1 252339Z 14015KT 32/17 A2994 RMK A01 T03210171  RH  041%=      5-min Rain = 0
KWT1 252340Z 14015KT 32/17 A2994 RMK A01 T03200169  RH  040%=      5-min Rain = 0
KWT1 252341Z 15015KT 32/17 A2994 RMK A01 T03200170  RH  041%=      5-min Rain = 0
KWT1 252342Z 15015KT 32/17 A2994 RMK A01 T03200172  RH  041%=      5-min Rain = 0
KWT1 252343Z 16014KT 32/17 A2994 RMK A01 T03190171  RH  041%=      5-min Rain = 0
KWT1 252344Z 15014KT 32/17 A2994 RMK A01 T03180170  RH  041%=      5-min Rain = 0
KWT1 252345Z 15015KT 32/17 A2994 RMK A01 T03180170  RH  041%=      5-min Rain = 0
KWT1 252346Z 15014KT 32/17 A2994 RMK A01 T03180171  RH  042%=      5-min Rain = 0
KWT1 252347Z 15011KT 32/17 A2994 RMK A01 T03180173  RH  042%=      5-min Rain = 0
KWT1 252348Z 15009KT 32/18 A2994 RMK A01 T03190177  RH  043%=      5-min Rain = 0
KWT1 252349Z 14013KT 32/18 A2994 RMK A01 T03200175  RH  042%=      5-min Rain = 0
KWT1 252350Z 14011KT 32/18 A2994 RMK A01 T03200175  RH  042%=      5-min Rain = 0
KWT1 252351Z 15013KT 32/18 A2994 RMK A01 T03210175  RH  042%=      5-min Rain = 0
KWT1 252352Z 15014KT 32/17 A2994 RMK A01 T03200172  RH  041%=      5-min Rain = 0
KWT1 252353Z 15014KT 32/17 A2994 RMK A01 T03190173  RH  042%=      5-min Rain = 0
KWT1 252354Z 16016KT 32/17 A2994 RMK A01 T03180171  RH  041%=      5-min Rain = 0
KWT1 252355Z 15013KT 32/17 A2994 RMK A01 T03170171  RH  042%=      5-min Rain = 0
KWT1 252356Z 16015KT 32/17 A2994 RMK A01 T03170170  RH  041%=      5-min Rain = 0
KWT1 252357Z 15014KT 32/17 A2994 RMK A01 T03170168  RH  041%=      5-min Rain = 0
KWT1 252358Z 15014KT 32/17 A2994 RMK A01 T03160169  RH  041%=      5-min Rain = 0
KWT1 252359Z 15013KT 32/17 A2994 RMK A01 T03170170  RH  042%=      5-min Rain = 0
KWT1 260000Z 15014KT 32/17 A2994 RMK A01 T03170171  RH  042%=      5-min Rain = 0
KWT1 260001Z 15014KT 32/17 A2994 RMK A01 T03170171  RH  042%=      5-min Rain = 0
KWT1 260002Z 15014KT 32/17 A2994 RMK A01 T03170171  RH  042%=      5-min Rain = 0
KWT1 260003Z 15011KT 32/17 A2994 RMK A01 T03160172  RH  042%=      5-min Rain = 0
KWT1 260004Z 15013G19KT 32/18 A2994 RMK A01 T03160175  RH  043%=      5-min Rain = 0
KWT1 260005Z 16010G16KT 32/18 A2994 RMK A01 T03160176  RH  043%=      5-min Rain = 0
KWT1 260006Z 16013KT 32/18 A2994 RMK A01 T03160176  RH  043%=      5-min Rain = 0
KWT1 260007Z 16015KT 32/17 A2994 RMK A01 T03160173  RH  042%=      5-min Rain = 0
KWT1 260008Z 15013KT 32/17 A2994 RMK A01 T03160174  RH  043%=      5-min Rain = 0
KWT1 260009Z 16013KT 32/17 A2994 RMK A01 T03150173  RH  043%=      5-min Rain = 0
KWT1 260010Z 15014KT 32/17 A2994 RMK A01 T03150171  RH  042%=      5-min Rain = 0
KWT1 260011Z 15012KT 31/17 A2994 RMK A01 T03140172  RH  042%=      5-min Rain = 0
KWT1 260012Z 16014KT 31/17 A2994 RMK A01 T03140171  RH  042%=      5-min Rain = 0
KWT1 260013Z 15015KT 31/17 A2994 RMK A01 T03130172  RH  043%=      5-min Rain = 0
KWT1 260014Z 15014KT 31/17 A2994 RMK A01 T03130174  RH  043%=      5-min Rain = 0
KWT1 260015Z 15014KT 31/17 A2994 RMK A01 T03130174  RH  044%=      5-min Rain = 0
KWT1 260016Z 16013KT 31/18 A2994 RMK A01 T03130176  RH  044%=      5-min Rain = 0
KWT1 260017Z 15013KT 31/18 A2994 RMK A01 T03130177  RH  044%=      5-min Rain = 0
KWT1 260018Z 15012KT 31/18 A2994 RMK A01 T03120177  RH  044%=      5-min Rain = 0
KWT1 260019Z 16012KT 31/18 A2994 RMK A01 T03120179  RH  045%=      5-min Rain = 0
KWT1 260020Z 16011KT 31/18 A2994 RMK A01 T03120179  RH  045%=      5-min Rain = 0
KWT1 260021Z 17016KT 31/18 A2994 RMK A01 T03120176  RH  044%=      5-min Rain = 0
KWT1 260022Z 16011G16KT 31/18 A2994 RMK A01 T03110175  RH  044%=      5-min Rain = 0
KWT1 260023Z 16013KT 31/18 A2994 RMK A01 T03110175  RH  044%=      5-min Rain = 0
KWT1 260024Z 16012KT 31/17 A2994 RMK A01 T03100174  RH  044%=      5-min Rain = 0
KWT1 260025Z 17012G17KT 31/17 A2994 RMK A01 T03110174  RH  044%=      5-min Rain = 0
KWT1 260026Z 16017KT 31/17 A2994 RMK A01 T03110174  RH  044%=      5-min Rain = 0
KWT1 260027Z 16013KT 31/17 A2994 RMK A01 T03100174  RH  044%=      5-min Rain = 0
KWT1 260028Z 16013KT 31/17 A2994 RMK A01 T03100174  RH  044%=      5-min Rain = 0
KWT1 260029Z 16011KT 31/18 A2994 RMK A01 T03090175  RH  045%=      5-min Rain = 0
KWT1 260030Z 16010KT 31/18 A2994 RMK A01 T03090177  RH  045%=      5-min Rain = 0
KWT1 260031Z 16015KT 31/18 A2994 RMK A01 T03090177  RH  045%=      5-min Rain = 0
KWT1 260032Z 16013KT 31/18 A2994 RMK A01 T03090177  RH  045%=      5-min Rain = 0
KWT1 260033Z 16015KT 31/18 A2994 RMK A01 T03080177  RH  046%=      5-min Rain = 0
KWT1 260034Z 16014KT 31/18 A2994 RMK A01 T03080176  RH  045%=      5-min Rain = 0
KWT1 260035Z 16012KT 31/18 A2994 RMK A01 T03080177  RH  045%=      5-min Rain = 0
KWT1 260036Z 16012G17KT 31/18 A2994 RMK A01 T03070177  RH  046%=      5-min Rain = 0
KWT1 260037Z 16012KT 31/18 A2994 RMK A01 T03080179  RH  046%=      5-min Rain = 0
KWT1 260038Z 16014KT 31/18 A2994 RMK A01 T03080179  RH  046%=      5-min Rain = 0
KWT1 260039Z 16013KT 31/18 A2994 RMK A01 T03070179  RH  046%=      5-min Rain = 0
KWT1 260040Z 15014KT 31/18 A2995 RMK A01 T03070181  RH  047%=      5-min Rain = 0
KWT1 260041Z 16015KT 31/18 A2994 RMK A01 T03070181  RH  047%=      5-min Rain = 0
KWT1 260042Z 16014KT 31/18 A2995 RMK A01 T03060180  RH  047%=      5-min Rain = 0
KWT1 260043Z 15012KT 31/18 A2995 RMK A01 T03060182  RH  047%=      5-min Rain = 0
KWT1 260044Z 15012KT 31/18 A2995 RMK A01 T03060181  RH  047%=      5-min Rain = 0
KWT1 260045Z 15012KT 31/18 A2995 RMK A01 T03060181  RH  047%=      5-min Rain = 0
KWT1 260046Z 16008KT 31/18 A2995 RMK A01 T03050183  RH  048%=      5-min Rain = 0
KWT1 260047Z 17010G15KT 31/18 A2995 RMK A01 T03050183  RH  048%=      5-min Rain = 0
KWT1 260048Z 17014KT 31/18 A2995 RMK A01 T03050177  RH  046%=      5-min Rain = 0
KWT1 260049Z 16013KT 30/18 A2995 RMK A01 T03040177  RH  046%=      5-min Rain = 0
KWT1 260050Z 17012KT 30/18 A2995 RMK A01 T03040176  RH  046%=      5-min Rain = 0
KWT1 260051Z 16011KT 30/18 A2995 RMK A01 T03030177  RH  047%=      5-min Rain = 0
KWT1 260052Z 16010KT 30/18 A2995 RMK A01 T03030177  RH  047%=      5-min Rain = 0
KWT1 260053Z 16012KT 30/18 A2995 RMK A01 T03030177  RH  047%=      5-min Rain = 0
KWT1 260054Z 15011G16KT 30/18 A2995 RMK A01 T03030176  RH  047%=      5-min Rain = 0
KWT1 260055Z 16011KT 30/18 A2995 RMK A01 T03020177  RH  047%=      5-min Rain = 0
KWT1 260056Z 16012KT 30/18 A2995 RMK A01 T03020176  RH  047%=      5-min Rain = 0
KWT1 260057Z 16012KT 30/17 A2995 RMK A01 T03020173  RH  046%=      5-min Rain = 0
KWT1 260058Z 16013KT 30/17 A2995 RMK A01 T03020170  RH  045%=      5-min Rain = 0
KWT1 260059Z 16016KT 30/16 A2995 RMK A01 T03010164  RH  044%=      5-min Rain = 0
KWT1 260100Z 15014KT 30/16 A2995 RMK A01 T03010164  RH  043%=      5-min Rain = 0
KWT1 260101Z 15012KT 30/16 A2995 RMK A01 T03010163  RH  043%=      5-min Rain = 0
KWT1 260102Z 15014KT 30/16 A2995 RMK A01 T03010164  RH  044%=      5-min Rain = 0
KWT1 260103Z 16010KT 30/17 A2995 RMK A01 T03000165  RH  044%=      5-min Rain = 0
KWT1 260104Z 15013KT 30/17 A2995 RMK A01 T03000168  RH  045%=      5-min Rain = 0
KWT1 260105Z 15013KT 30/17 A2995 RMK A01 T03000170  RH  046%=      5-min Rain = 0
KWT1 260106Z 15013KT 30/17 A2995 RMK A01 T02990171  RH  046%=      5-min Rain = 0
KWT1 260107Z 15013KT 30/17 A2995 RMK A01 T02980173  RH  047%=      5-min Rain = 0
KWT1 260108Z 15012KT 30/17 A2995 RMK A01 T02980174  RH  047%=      5-min Rain = 0
KWT1 260109Z 16012KT 30/17 A2995 RMK A01 T02980174  RH  047%=      5-min Rain = 0
KWT1 260110Z 16014KT 30/17 A2995 RMK A01 T02970174  RH  047%=      5-min Rain = 0
KWT1 260111Z 16011KT 30/17 A2996 RMK A01 T02970174  RH  048%=      5-min Rain = 0
KWT1 260112Z 16012KT 30/18 A2996 RMK A01 T02970175  RH  048%=      5-min Rain = 0
KWT1 260113Z 16013KT 30/18 A2996 RMK A01 T02970175  RH  048%=      5-min Rain = 0
KWT1 260114Z 16014KT 30/18 A2996 RMK A01 T02970175  RH  048%=      5-min Rain = 0
KWT1 260115Z 16010G15KT 30/18 A2996 RMK A01 T02970176  RH  048%=      5-min Rain = 0
KWT1 260116Z 16013KT 30/18 A2996 RMK A01 T02960176  RH  049%=      5-min Rain = 0
KWT1 260117Z 16013KT 30/18 A2996 RMK A01 T02960175  RH  048%=      5-min Rain = 0
KWT1 260118Z 16012KT 30/18 A2996 RMK A01 T02960176  RH  049%=      5-min Rain = 0
KWT1 260119Z 16009G14KT 30/18 A2996 RMK A01 T02950176  RH  049%=      5-min Rain = 0
KWT1 260120Z 16013KT 30/18 A2996 RMK A01 T02950177  RH  049%=      5-min Rain = 0
KWT1 260121Z 16014KT 29/18 A2996 RMK A01 T02940175  RH  049%=      5-min Rain = 0
KWT1 260122Z 17013KT 29/18 A2996 RMK A01 T02940175  RH  049%=      5-min Rain = 0
KWT1 260123Z 16014KT 29/18 A2996 RMK A01 T02940175  RH  049%=      5-min Rain = 0
KWT1 260124Z 16011KT 30/18 A2997 RMK A01 T02950176  RH  049%=      5-min Rain = 0
KWT1 260125Z 15008KT 29/18 A2997 RMK A01 T02940177  RH  049%=      5-min Rain = 0
KWT1 260126Z 16009KT 29/18 A2997 RMK A01 T02930177  RH  050%=      5-min Rain = 0
KWT1 260127Z 16011KT 29/18 A2997 RMK A01 T02930178  RH  050%=      5-min Rain = 0
KWT1 260128Z 16011KT 29/18 A2997 RMK A01 T02920177  RH  050%=      5-min Rain = 0
KWT1 260129Z 16009KT 29/18 A2997 RMK A01 T02920177  RH  050%=      5-min Rain = 0
KWT1 260130Z 16011KT 29/18 A2997 RMK A01 T02920177  RH  050%=      5-min Rain = 0
KWT1 260131Z 16012KT 29/18 A2997 RMK A01 T02910176  RH  050%=      5-min Rain = 0
KWT1 260132Z 16011G16KT 29/18 A2997 RMK A01 T02910176  RH  050%=      5-min Rain = 0
KWT1 260133Z 16012KT 29/18 A2997 RMK A01 T02910176  RH  050%=      5-min Rain = 0
KWT1 260134Z 16012KT 29/18 A2998 RMK A01 T02910176  RH  050%=      5-min Rain = 0
KWT1 260135Z 16012KT 29/18 A2998 RMK A01 T02910176  RH  050%=      5-min Rain = 0
KWT1 260136Z 16012KT 29/18 A2998 RMK A01 T02900176  RH  050%=      5-min Rain = 0
KWT1 260137Z 16010KT 29/18 A2998 RMK A01 T02900176  RH  050%=      5-min Rain = 0
KWT1 260138Z 16012KT 29/18 A2998 RMK A01 T02890177  RH  051%=      5-min Rain = 0
KWT1 260139Z 16009KT 29/18 A2998 RMK A01 T02890177  RH  051%=      5-min Rain = 0
KWT1 260140Z 16011KT 29/18 A2998 RMK A01 T02880177  RH  051%=      5-min Rain = 0
KWT1 260141Z 16009KT 29/18 A2998 RMK A01 T02880177  RH  051%=      5-min Rain = 0
KWT1 260142Z 16010KT 29/18 A2998 RMK A01 T02880178  RH  051%=      5-min Rain = 0
KWT1 260143Z 16008KT 29/18 A2998 RMK A01 T02870178  RH  052%=      5-min Rain = 0
KWT1 260144Z 16010KT 29/18 A2998 RMK A01 T02860179  RH  052%=      5-min Rain = 0
KWT1 260145Z 16010KT 29/18 A2998 RMK A01 T02860179  RH  052%=      5-min Rain = 0
KWT1 260146Z 16012KT 29/18 A2998 RMK A01 T02860179  RH  052%=      5-min Rain = 0
KWT1 260147Z 16012KT 29/18 A2998 RMK A01 T02860179  RH  052%=      5-min Rain = 0
KWT1 260148Z 16010KT 29/18 A2998 RMK A01 T02860179  RH  052%=      5-min Rain = 0
KWT1 260149Z 15010KT 29/18 A2998 RMK A01 T02860179  RH  052%=      5-min Rain = 0
KWT1 260150Z 15009KT 29/18 A2998 RMK A01 T02850179  RH  053%=      5-min Rain = 0
KWT1 260151Z 15010KT 29/18 A2998 RMK A01 T02850179  RH  053%=      5-min Rain = 0
KWT1 260152Z 16010KT 28/18 A2999 RMK A01 T02840179  RH  053%=      5-min Rain = 0
KWT1 260153Z 16008KT 28/18 A2999 RMK A01 T02840179  RH  053%=      5-min Rain = 0
KWT1 260154Z 15008KT 28/18 A2999 RMK A01 T02830179  RH  053%=      5-min Rain = 0
KWT1 260155Z 15010KT 28/18 A2999 RMK A01 T02820179  RH  053%=      5-min Rain = 0
KWT1 260156Z 15009KT 28/18 A2999 RMK A01 T02820178  RH  053%=      5-min Rain = 0
KWT1 260157Z 15009KT 28/18 A2999 RMK A01 T02820178  RH  053%=      5-min Rain = 0
KWT1 260158Z 15010KT 28/18 A2999 RMK A01 T02810178  RH  053%=      5-min Rain = 0
KWT1 260159Z 15010KT 28/18 A2999 RMK A01 T02810179  RH  054%=      5-min Rain = 0
KWT1 260200Z 16009KT 28/18 A2999 RMK A01 T02810179  RH  054%=      5-min Rain = 0
KWT1 260201Z 15010KT 28/18 A2999 RMK A01 T02810179  RH  054%=      5-min Rain = 0
KWT1 260202Z 15009KT 28/18 A2999 RMK A01 T02800179  RH  054%=      5-min Rain = 0
KWT1 260203Z 15009KT 28/18 A2999 RMK A01 T02800179  RH  054%=      5-min Rain = 0
KWT1 260204Z 15009KT 28/18 A2999 RMK A01 T02790179  RH  054%=      5-min Rain = 0
KWT1 260205Z 15008KT 28/18 A2999 RMK A01 T02790179  RH  055%=      5-min Rain = 0
KWT1 260206Z 14008KT 28/18 A2999 RMK A01 T02780179  RH  055%=      5-min Rain = 0
KWT1 260207Z 14007KT 28/18 A2999 RMK A01 T02780180  RH  055%=      5-min Rain = 0
KWT1 260208Z 14006KT 28/18 A2999 RMK A01 T02770180  RH  056%=      5-min Rain = 0
KWT1 260209Z 14006KT 28/18 A30 RMK A01 T02770181  RH  056%=      5-min Rain = 0
KWT1 260210Z 14007KT 28/18 A30 RMK A01 T02760180  RH  056%=      5-min Rain = 0
KWT1 260211Z 14007KT 28/18 A30 RMK A01 T02750180  RH  056%=      5-min Rain = 0
KWT1 260212Z 14007KT 27/18 A30 RMK A01 T02740181  RH  057%=      5-min Rain = 0
KWT1 260213Z 14006KT 27/18 A30 RMK A01 T02730181  RH  057%=      5-min Rain = 0
KWT1 260214Z 14007KT 27/18 A30 RMK A01 T02720181  RH  057%=      5-min Rain = 0
KWT1 260215Z 14008KT 27/18 A30 RMK A01 T02710181  RH  058%=      5-min Rain = 0
KWT1 260216Z 14007KT 27/18 A30 RMK A01 T02710182  RH  058%=      5-min Rain = 0
KWT1 260217Z 13009KT 27/18 A30 RMK A01 T02710182  RH  058%=      5-min Rain = 0
KWT1 260218Z 14008KT 27/18 A30 RMK A01 T02710183  RH  058%=      5-min Rain = 0
KWT1 260219Z 14008KT 27/18 A30 RMK A01 T02710183  RH  059%=      5-min Rain = 0
KWT1 260220Z 14008KT 27/18 A30 RMK A01 T02700183  RH  059%=      5-min Rain = 0
KWT1 260221Z 14008KT 27/18 A30 RMK A01 T02700184  RH  059%=      5-min Rain = 0
KWT1 260222Z 14007KT 27/18 A30 RMK A01 T02700184  RH  059%=      5-min Rain = 0
KWT1 260223Z 14008KT 27/18 A30 RMK A01 T02690184  RH  060%=      5-min Rain = 0
KWT1 260224Z 14008KT 27/19 A30 RMK A01 T02690185  RH  060%=      5-min Rain = 0
KWT1 260225Z 14007KT 27/18 A30 RMK A01 T02680184  RH  060%=      5-min Rain = 0
KWT1 260226Z 14007KT 27/19 A30 RMK A01 T02680185  RH  060%=      5-min Rain = 0
KWT1 260227Z 13007KT 27/19 A30 RMK A01 T02670185  RH  061%=      5-min Rain = 0
KWT1 260228Z 13008KT 27/19 A30 RMK A01 T02660185  RH  061%=      5-min Rain = 0
KWT1 260229Z 13007KT 27/19 A30 RMK A01 T02660185  RH  061%=      5-min Rain = 0
KWT1 260230Z 13008KT 27/19 A30 RMK A01 T02650185  RH  061%=      5-min Rain = 0
KWT1 260231Z 13008KT 27/19 A30 RMK A01 T02650185  RH  061%=      5-min Rain = 0
KWT1 260232Z 13008KT 27/19 A30 RMK A01 T02650185  RH  062%=      5-min Rain = 0
KWT1 260233Z 14008KT 27/19 A30 RMK A01 T02650185  RH  062%=      5-min Rain = 0
KWT1 260234Z 14008KT 27/19 A30 RMK A01 T02650185  RH  061%=      5-min Rain = 0
KWT1 260235Z 13007KT 27/19 A30 RMK A01 T02650185  RH  061%=      5-min Rain = 0
KWT1 260236Z 14008KT 27/19 A30 RMK A01 T02650185  RH  062%=      5-min Rain = 0
KWT1 260237Z 14008KT 27/19 A30 RMK A01 T02650185  RH  062%=      5-min Rain = 0
KWT1 260238Z 14008KT 26/19 A30 RMK A01 T02640185  RH  062%=      5-min Rain = 0
KWT1 260239Z 14009KT 26/19 A30 RMK A01 T02640185  RH  062%=      5-min Rain = 0
KWT1 260240Z 14008KT 26/19 A30 RMK A01 T02640185  RH  062%=      5-min Rain = 0
KWT1 260241Z 14007KT 26/19 A30 RMK A01 T02640185  RH  062%=      5-min Rain = 0
KWT1 260242Z 14008KT 26/19 A30 RMK A01 T02640185  RH  062%=      5-min Rain = 0
KWT1 260243Z 14009KT 26/19 A30 RMK A01 T02640185  RH  062%=      5-min Rain = 0
KWT1 260244Z 13009KT 26/18 A30 RMK A01 T02640184  RH  062%=      5-min Rain = 0
KWT1 260245Z 13009KT 26/18 A30 RMK A01 T02630184  RH  062%=      5-min Rain = 0
KWT1 260246Z 14009KT 26/18 A30 RMK A01 T02640184  RH  061%=      5-min Rain = 0
KWT1 260247Z 14010KT 26/18 A30 RMK A01 T02640184  RH  061%=      5-min Rain = 0
KWT1 260248Z 14009KT 26/18 A30 RMK A01 T02640184  RH  062%=      5-min Rain = 0
KWT1 260249Z 14010KT 26/18 A30 RMK A01 T02640184  RH  062%=      5-min Rain = 0
KWT1 260250Z 14009KT 26/19 A30 RMK A01 T02640185  RH  062%=      5-min Rain = 0
KWT1 260251Z 14009KT 26/18 A30 RMK A01 T02630184  RH  062%=      5-min Rain = 0
KWT1 260252Z 14009KT 26/18 A30 RMK A01 T02630184  RH  062%=      5-min Rain = 0
KWT1 260253Z 14009KT 26/18 A30 RMK A01 T02620184  RH  062%=      5-min Rain = 0
KWT1 260254Z 14008KT 26/19 A30 RMK A01 T02620185  RH  062%=      5-min Rain = 0
KWT1 260255Z 14008KT 26/18 A30 RMK A01 T02610184  RH  063%=      5-min Rain = 0
KWT1 260256Z 14009KT 26/18 A30 RMK A01 T02610184  RH  063%=      5-min Rain = 0
KWT1 260257Z 14008KT 26/18 A30 RMK A01 T02610184  RH  063%=      5-min Rain = 0
KWT1 260258Z 14009KT 26/18 A3001 RMK A01 T02610184  RH  063%=      5-min Rain = 0
KWT1 260259Z 14008KT 26/18 A3001 RMK A01 T02610184  RH  063%=      5-min Rain = 0
KWT1 260300Z 14008KT 26/18 A3001 RMK A01 T02610184  RH  063%=      5-min Rain = 0
KWT1 260301Z 13008KT 26/18 A3001 RMK A01 T02600184  RH  063%=      5-min Rain = 0
KWT1 260302Z 13009KT 26/18 A3001 RMK A01 T02600183  RH  063%=      5-min Rain = 0
KWT1 260303Z 13009KT 26/18 A3001 RMK A01 T02600183  RH  062%=      5-min Rain = 0
KWT1 260304Z 13009KT 26/18 A3001 RMK A01 T02600183  RH  062%=      5-min Rain = 0
KWT1 260305Z 13009KT 26/18 A3001 RMK A01 T02600182  RH  062%=      5-min Rain = 0
KWT1 260306Z 13008KT 26/18 A3001 RMK A01 T02600182  RH  062%=      5-min Rain = 0
KWT1 260307Z 13008KT 26/18 A3001 RMK A01 T02600182  RH  062%=      5-min Rain = 0
KWT1 260308Z 13008KT 26/18 A3002 RMK A01 T02600182  RH  062%=      5-min Rain = 0
KWT1 260309Z 13007KT 26/18 A3002 RMK A01 T02600182  RH  062%=      5-min Rain = 0
KWT1 260310Z 13008KT 26/18 A3002 RMK A01 T02600182  RH  062%=      5-min Rain = 0
KWT1 260311Z 13007KT 26/18 A3002 RMK A01 T02590182  RH  062%=      5-min Rain = 0
KWT1 260312Z 13007KT 26/18 A3002 RMK A01 T02590181  RH  062%=      5-min Rain = 0
KWT1 260313Z 13006KT 26/18 A3002 RMK A01 T02590181  RH  062%=      5-min Rain = 0
KWT1 260314Z 13008KT 26/18 A3002 RMK A01 T02590181  RH  062%=      5-min Rain = 0
KWT1 260315Z 13007KT 26/18 A3002 RMK A01 T02590181  RH  062%=      5-min Rain = 0
KWT1 260316Z 13007KT 26/18 A3002 RMK A01 T02580181  RH  062%=      5-min Rain = 0
KWT1 260317Z 14007KT 26/18 A3002 RMK A01 T02580181  RH  062%=      5-min Rain = 0
KWT1 260318Z 13007KT 26/18 A3002 RMK A01 T02570181  RH  063%=      5-min Rain = 0
KWT1 260319Z 13008KT 26/18 A3002 RMK A01 T02570181  RH  063%=      5-min Rain = 0
KWT1 260320Z 14007KT 26/18 A3002 RMK A01 T02560181  RH  063%=      5-min Rain = 0
KWT1 260321Z 14007KT 26/18 A3002 RMK A01 T02560181  RH  063%=      5-min Rain = 0
KWT1 260322Z 13007KT 26/18 A3002 RMK A01 T02560181  RH  063%=      5-min Rain = 0
KWT1 260323Z 13007KT 26/18 A3002 RMK A01 T02550181  RH  063%=      5-min Rain = 0
KWT1 260324Z 13007KT 26/18 A3003 RMK A01 T02550180  RH  063%=      5-min Rain = 0
KWT1 260325Z 13007KT 25/18 A3003 RMK A01 T02540180  RH  063%=      5-min Rain = 0
KWT1 260326Z 13007KT 25/18 A3003 RMK A01 T02540179  RH  063%=      5-min Rain = 0
KWT1 260327Z 13007KT 25/18 A3003 RMK A01 T02540179  RH  063%=      5-min Rain = 0
KWT1 260328Z 13007KT 25/18 A3003 RMK A01 T02540179  RH  063%=      5-min Rain = 0
KWT1 260329Z 12007KT 25/18 A3003 RMK A01 T02540179  RH  063%=      5-min Rain = 0
KWT1 260330Z 12007KT 26/18 A3004 RMK A01 T02550179  RH  063%=      5-min Rain = 0
KWT1 260331Z 12006KT 25/18 A3004 RMK A01 T02540178  RH  063%=      5-min Rain = 0
KWT1 260332Z 12006KT 25/18 A3004 RMK A01 T02530179  RH  063%=      5-min Rain = 0
KWT1 260333Z 12005KT 25/18 A3004 RMK A01 T02520178  RH  063%=      5-min Rain = 0
KWT1 260334Z 12006KT 25/18 A3004 RMK A01 T02520178  RH  064%=      5-min Rain = 0
KWT1 260335Z 11005KT 25/18 A3004 RMK A01 T02510178  RH  064%=      5-min Rain = 0
KWT1 260336Z 11006KT 25/18 A3004 RMK A01 T02500178  RH  064%=      5-min Rain = 0
KWT1 260337Z 11005KT 25/18 A3004 RMK A01 T02490178  RH  065%=      5-min Rain = 0
KWT1 260338Z 11005KT 25/18 A3005 RMK A01 T02480178  RH  065%=      5-min Rain = 0
KWT1 260339Z 12006KT 25/18 A3005 RMK A01 T02480177  RH  065%=      5-min Rain = 0
KWT1 260340Z 11006KT 25/18 A3005 RMK A01 T02470177  RH  065%=      5-min Rain = 0
KWT1 260341Z 12006KT 25/18 A3005 RMK A01 T02470176  RH  065%=      5-min Rain = 0
KWT1 260342Z 12005KT 25/18 A3005 RMK A01 T02470176  RH  065%=      5-min Rain = 0
KWT1 260343Z 12006KT 25/18 A3005 RMK A01 T02470175  RH  064%=      5-min Rain = 0
KWT1 260344Z 12006KT 25/18 A3005 RMK A01 T02470176  RH  064%=      5-min Rain = 0
KWT1 260345Z 12005KT 25/18 A3005 RMK A01 T02470175  RH  064%=      5-min Rain = 0
KWT1 260346Z 12006KT 25/18 A3005 RMK A01 T02460175  RH  064%=      5-min Rain = 0
KWT1 260347Z 12005KT 25/18 A3005 RMK A01 T02460175  RH  064%=      5-min Rain = 0
KWT1 260348Z 12006KT 25/18 A3005 RMK A01 T02460175  RH  064%=      5-min Rain = 0
KWT1 260349Z 12006KT 25/18 A3005 RMK A01 T02460175  RH  064%=      5-min Rain = 0
KWT1 260350Z 12006KT 25/17 A3005 RMK A01 T02450174  RH  065%=      5-min Rain = 0
KWT1 260351Z 11006KT 25/17 A3005 RMK A01 T02450174  RH  065%=      5-min Rain = 0
KWT1 260352Z 12006KT 24/17 A3005 RMK A01 T02440174  RH  065%=      5-min Rain = 0
KWT1 260353Z 12006KT 24/17 A3006 RMK A01 T02440174  RH  065%=      5-min Rain = 0
KWT1 260354Z 12006KT 24/17 A3006 RMK A01 T02440173  RH  065%=      5-min Rain = 0
KWT1 260355Z 12006KT 24/17 A3006 RMK A01 T02440173  RH  065%=      5-min Rain = 0
KWT1 260356Z 12006KT 24/17 A3006 RMK A01 T02440173  RH  065%=      5-min Rain = 0
KWT1 260357Z 12006KT 24/17 A3006 RMK A01 T02440173  RH  065%=      5-min Rain = 0
KWT1 260358Z 13006KT 24/17 A3006 RMK A01 T02440173  RH  064%=      5-min Rain = 0
KWT1 260359Z 13006KT 24/17 A3006 RMK A01 T02440173  RH  064%=      5-min Rain = 0
KWT1 260400Z 13007KT 24/17 A3006 RMK A01 T02430172  RH  064%=      5-min Rain = 0
KWT1 260401Z 13007KT 24/17 A3006 RMK A01 T02430172  RH  064%=      5-min Rain = 0
KWT1 260402Z 13007KT 24/17 A3006 RMK A01 T02440171  RH  064%=      5-min Rain = 0
KWT1 260403Z 13007KT 24/17 A3006 RMK A01 T02440171  RH  064%=      5-min Rain = 0
KWT1 260404Z 14006KT 24/17 A3006 RMK A01 T02440171  RH  064%=      5-min Rain = 0
KWT1 260405Z 13007KT 24/17 A3006 RMK A01 T02440170  RH  063%=      5-min Rain = 0
KWT1 260406Z 13006KT 24/17 A3006 RMK A01 T02440170  RH  063%=      5-min Rain = 0
KWT1 260407Z 13006KT 24/17 A3006 RMK A01 T02440170  RH  063%=      5-min Rain = 0
KWT1 260408Z 13007KT 24/17 A3006 RMK A01 T02440170  RH  063%=      5-min Rain = 0
KWT1 260409Z 13006KT 24/17 A3006 RMK A01 T02440170  RH  063%=      5-min Rain = 0
KWT1 260410Z 13006KT 24/17 A3006 RMK A01 T02440170  RH  063%=      5-min Rain = 0
KWT1 260411Z 13006KT 24/17 A3006 RMK A01 T02440170  RH  063%=      5-min Rain = 0
KWT1 260412Z 12006KT 24/17 A3006 RMK A01 T02440169  RH  063%=      5-min Rain = 0
KWT1 260413Z 12005KT 25/17 A3006 RMK A01 T02450169  RH  063%=      5-min Rain = 0
KWT1 260414Z 12006KT 25/17 A3006 RMK A01 T02450170  RH  063%=      5-min Rain = 0
KWT1 260415Z 12006KT 24/17 A3006 RMK A01 T02440169  RH  063%=      5-min Rain = 0
KWT1 260416Z 13006KT 24/17 A3006 RMK A01 T02440169  RH  063%=      5-min Rain = 0
KWT1 260417Z 13006KT 24/17 A3006 RMK A01 T02430168  RH  063%=      5-min Rain = 0
KWT1 260418Z 13005KT 24/17 A3006 RMK A01 T02440169  RH  063%=      5-min Rain = 0
KWT1 260419Z 13006KT 24/17 A3006 RMK A01 T02430168  RH  063%=      5-min Rain = 0
KWT1 260420Z 13005KT 24/17 A3006 RMK A01 T02430169  RH  063%=      5-min Rain = 0
KWT1 260421Z 13006KT 24/17 A3006 RMK A01 T02430168  RH  063%=      5-min Rain = 0
KWT1 260422Z 13005KT 24/17 A3006 RMK A01 T02430169  RH  063%=      5-min Rain = 0
KWT1 260423Z 13006KT 24/17 A3006 RMK A01 T02420168  RH  063%=      5-min Rain = 0
KWT1 260424Z 13006KT 24/17 A3006 RMK A01 T02420168  RH  063%=      5-min Rain = 0
KWT1 260425Z 14006KT 24/17 A3006 RMK A01 T02420168  RH  063%=      5-min Rain = 0
KWT1 260426Z 14006KT 24/17 A3006 RMK A01 T02420167  RH  063%=      5-min Rain = 0
KWT1 260427Z 14006KT 24/17 A3006 RMK A01 T02420167  RH  063%=      5-min Rain = 0
KWT1 260428Z 14006KT 24/17 A3006 RMK A01 T02420167  RH  063%=      5-min Rain = 0
KWT1 260429Z 14006KT 24/17 A3006 RMK A01 T02420167  RH  063%=      5-min Rain = 0
KWT1 260430Z 14006KT 24/17 A3006 RMK A01 T02410167  RH  063%=      5-min Rain = 0
KWT1 260431Z 14006KT 24/17 A3006 RMK A01 T02410167  RH  063%=      5-min Rain = 0
KWT1 260432Z 14006KT 24/17 A3006 RMK A01 T02410167  RH  063%=      5-min Rain = 0
KWT1 260433Z 14005KT 24/17 A3006 RMK A01 T02410167  RH  063%=      5-min Rain = 0
KWT1 260434Z 14005KT 24/17 A3006 RMK A01 T02400167  RH  064%=      5-min Rain = 0
KWT1 260435Z 13006KT 24/17 A3006 RMK A01 T02400167  RH  064%=      5-min Rain = 0
KWT1 260436Z 13005KT 24/17 A3006 RMK A01 T02400167  RH  064%=      5-min Rain = 0
KWT1 260437Z 13006KT 24/17 A3006 RMK A01 T02400167  RH  064%=      5-min Rain = 0
KWT1 260438Z 13005KT 24/17 A3006 RMK A01 T02400166  RH  063%=      5-min Rain = 0
KWT1 260439Z 12006KT 24/17 A3006 RMK A01 T02400166  RH  063%=      5-min Rain = 0
KWT1 260440Z 12006KT 24/17 A3006 RMK A01 T02400166  RH  064%=      5-min Rain = 0
KWT1 260441Z 13006KT 24/17 A3006 RMK A01 T02400167  RH  064%=      5-min Rain = 0
KWT1 260442Z 12005KT 24/17 A3006 RMK A01 T02400166  RH  064%=      5-min Rain = 0
KWT1 260443Z 11005KT 24/17 A3006 RMK A01 T02390167  RH  064%=      5-min Rain = 0
KWT1 260444Z 12005KT 24/17 A3006 RMK A01 T02390167  RH  064%=      5-min Rain = 0
KWT1 260445Z 11004KT 24/17 A3006 RMK A01 T02390167  RH  064%=      5-min Rain = 0
KWT1 260446Z 11005KT 24/17 A3006 RMK A01 T02380167  RH  064%=      5-min Rain = 0
KWT1 260447Z 11005KT 24/17 A3006 RMK A01 T02370166  RH  065%=      5-min Rain = 0
KWT1 260448Z 11004KT 24/17 A3006 RMK A01 T02370167  RH  065%=      5-min Rain = 0
KWT1 260449Z 11005KT 24/17 A3006 RMK A01 T02360166  RH  065%=      5-min Rain = 0
KWT1 260450Z 12004KT 24/17 A3006 RMK A01 T02360167  RH  065%=      5-min Rain = 0
KWT1 260451Z 11004KT 24/17 A3006 RMK A01 T02360167  RH  065%=      5-min Rain = 0
KWT1 260452Z 12004KT 24/17 A3006 RMK A01 T02350167  RH  065%=      5-min Rain = 0
KWT1 260453Z 11005KT 24/17 A3006 RMK A01 T02350166  RH  065%=      5-min Rain = 0
KWT1 260454Z 12004KT 24/17 A3006 RMK A01 T02350166  RH  065%=      5-min Rain = 0
KWT1 260455Z 11004KT 23/17 A3006 RMK A01 T02340166  RH  065%=      5-min Rain = 0
KWT1 260456Z 12004KT 24/17 A3006 RMK A01 T02350166  RH  065%=      5-min Rain = 0
KWT1 260457Z 12004KT 24/17 A3006 RMK A01 T02350166  RH  065%=      5-min Rain = 0
KWT1 260458Z 12004KT 24/17 A3006 RMK A01 T02350166  RH  065%=      5-min Rain = 0
KWT1 260459Z 13004KT 24/17 A3006 RMK A01 T02350166  RH  065%=      5-min Rain = 0

Page generated in 0.1313 seconds.